Wetterdaten: Freitag, 01.02.2019
Datum Zeit Temp. Aussen Temp. o. S. +5cm Feuchte Auss Luftdruck Regen Sonnenschein Regendauer Solar Windben Empfang
01.02.2019 00:00 -1,2 C -1,7 C -2,2 C 95 % 989,1 hPa 0,0 l/m 0 min 0 min 0 W/m 6,4 km/h (2 Bft) 97,83 %
01.02.2019 00:02 -1,2 C -1,7 C -2,2 C 95 % 989,1 hPa 0,0 l/m 0 min 0 min 0 W/m 6,4 km/h (2 Bft) 100,00 %
01.02.2019 00:04 -1,2 C -1,7 C -2,2 C 95 % 989,0 hPa 0,0 l/m 0 min 0 min 0 W/m 3,2 km/h (1 Bft) 97,87 %
01.02.2019 00:07 -1,2 C -1,7 C -2,2 C 95 % 988,8 hPa 0,0 l/m 0 min 0 min 0 W/m 6,4 km/h (2 Bft) 96,15 %
01.02.2019 00:10 -1,2 C -1,7 C -2,2 C 95 % 988,9 hPa 0,0 l/m 0 min 0 min 0 W/m 9,7 km/h (2 Bft) 97,14 %
01.02.2019 00:12 -1,1 C -1,7 C -2,2 C 95 % 988,8 hPa 0,0 l/m 0 min 0 min 0 W/m 6,4 km/h (2 Bft) 97,87 %
01.02.2019 00:14 -1,1 C -1,7 C -2,2 C 95 % 988,7 hPa 0,0 l/m 0 min 0 min 0 W/m 6,4 km/h (2 Bft) 97,87 %
01.02.2019 00:16 -1,1 C -1,7 C -1,7 C 95 % 988,7 hPa 0,0 l/m 0 min 0 min 0 W/m 6,4 km/h (2 Bft) 97,83 %
01.02.2019 00:18 -1,1 C -1,7 C -1,7 C 95 % 988,7 hPa 0,0 l/m 0 min 0 min 0 W/m 6,4 km/h (2 Bft) 97,87 %
01.02.2019 00:20 -1,1 C -1,7 C -1,7 C 95 % 988,7 hPa 0,0 l/m 0 min 0 min 0 W/m 6,4 km/h (2 Bft) 97,87 %
01.02.2019 00:22 -1,0 C -1,7 C -1,7 C 95 % 988,7 hPa 0,0 l/m 0 min 0 min 0 W/m 6,4 km/h (2 Bft) 97,87 %
01.02.2019 00:24 -1,0 C -1,7 C -1,7 C 95 % 988,7 hPa 0,0 l/m 0 min 0 min 0 W/m 6,4 km/h (2 Bft) 97,87 %
01.02.2019 00:26 -1,0 C -1,7 C -1,7 C 95 % 988,6 hPa 0,0 l/m 0 min 0 min 0 W/m 6,4 km/h (2 Bft) 95,65 %
01.02.2019 00:28 -1,0 C -1,7 C -1,7 C 95 % 988,6 hPa 0,0 l/m 0 min 0 min 0 W/m 9,7 km/h (2 Bft) 95,74 %
01.02.2019 00:30 -0,9 C -1,7 C -1,7 C 95 % 988,5 hPa 0,0 l/m 0 min 0 min 0 W/m 9,7 km/h (2 Bft) 97,87 %
01.02.2019 00:32 -0,9 C -1,7 C -1,7 C 95 % 988,6 hPa 0,0 l/m 0 min 0 min 0 W/m 6,4 km/h (2 Bft) 100,00 %
01.02.2019 00:34 -0,9 C -1,7 C -1,7 C 94 % 988,5 hPa 0,0 l/m 0 min 0 min 0 W/m 9,7 km/h (2 Bft) 97,87 %
01.02.2019 00:36 -0,9 C -1,7 C -1,7 C 94 % 988,4 hPa 0,0 l/m 0 min 0 min 0 W/m 6,4 km/h (2 Bft) 97,83 %
01.02.2019 00:38 -0,9 C -1,7 C -1,7 C 95 % 988,3 hPa 0,0 l/m 0 min 0 min 0 W/m 6,4 km/h (2 Bft) 97,92 %
01.02.2019 00:40 -0,9 C -1,7 C -1,7 C 94 % 988,4 hPa 0,0 l/m 0 min 0 min 0 W/m 12,9 km/h (3 Bft) 100,00 %
01.02.2019 00:42 -0,9 C -1,1 C -1,7 C 94 % 988,2 hPa 0,0 l/m 0 min 0 min 0 W/m 9,7 km/h (2 Bft) 97,87 %
01.02.2019 00:44 -0,9 C -1,1 C -1,7 C 94 % 988,2 hPa 0,0 l/m 0 min 0 min 0 W/m 9,7 km/h (2 Bft) 97,87 %
01.02.2019 00:46 -0,9 C -1,1 C -1,7 C 94 % 988,1 hPa 0,0 l/m 0 min 0 min 0 W/m 9,7 km/h (2 Bft) 97,87 %
01.02.2019 00:48 -0,8 C -1,1 C -1,7 C 94 % 988,1 hPa 0,0 l/m 0 min 0 min 0 W/m 6,4 km/h (2 Bft) 97,83 %
01.02.2019 00:50 -0,8 C -1,1 C -1,7 C 94 % 988,1 hPa 0,0 l/m 0 min 0 min 0 W/m 6,4 km/h (2 Bft) 97,87 %
01.02.2019 00:52 -0,8 C -1,1 C -1,7 C 94 % 988,0 hPa 0,0 l/m 0 min 0 min 0 W/m 9,7 km/h (2 Bft) 97,87 %
01.02.2019 00:54 -0,8 C -1,1 C -1,7 C 94 % 987,9 hPa 0,0 l/m 0 min 0 min 0 W/m 9,7 km/h (2 Bft) 97,87 %
01.02.2019 00:56 -0,8 C -1,1 C -1,7 C 94 % 987,9 hPa 0,0 l/m 0 min 0 min 0 W/m 6,4 km/h (2 Bft) 95,74 %
01.02.2019 00:58 -0,8 C -1,1 C -1,7 C 94 % 987,9 hPa 0,0 l/m 0 min 0 min 0 W/m 6,4 km/h (2 Bft) 95,65 %
01.02.2019 01:00 -0,8 C -1,1 C -1,7 C 94 % 987,8 hPa 0,0 l/m 0 min 0 min 0 W/m 9,7 km/h (2 Bft) 97,87 %
01.02.2019 01:02 -0,7 C -1,1 C -1,7 C 94 % 987,8 hPa 0,0 l/m 0 min 0 min 0 W/m 6,4 km/h (2 Bft) 97,87 %
01.02.2019 01:04 -0,7 C -1,1 C -1,7 C 94 % 987,7 hPa 0,0 l/m 0 min 0 min 0 W/m 6,4 km/h (2 Bft) 97,87 %
01.02.2019 01:06 -0,7 C -1,1 C -1,7 C 94 % 987,7 hPa 0,0 l/m 0 min 0 min 0 W/m 9,7 km/h (2 Bft) 97,87 %
01.02.2019 01:08 -0,7 C -1,1 C -1,7 C 94 % 987,7 hPa 0,0 l/m 0 min 0 min 0 W/m 9,7 km/h (2 Bft) 95,74 %
01.02.2019 01:10 -0,6 C -1,1 C -1,7 C 93 % 987,7 hPa 0,0 l/m 0 min 0 min 0 W/m 6,4 km/h (2 Bft) 95,65 %
01.02.2019 01:12 -0,6 C -1,1 C -1,7 C 93 % 987,6 hPa 0,0 l/m 0 min 0 min 0 W/m 12,9 km/h (3 Bft) 95,74 %
01.02.2019 01:14 -0,6 C -1,1 C -1,7 C 94 % 987,6 hPa 0,0 l/m 0 min 0 min 0 W/m 9,7 km/h (2 Bft) 95,74 %
01.02.2019 01:16 -0,6 C -1,1 C -1,1 C 93 % 987,6 hPa 0,0 l/m 0 min 0 min 0 W/m 9,7 km/h (2 Bft) 95,74 %
01.02.2019 01:18 -0,5 C -1,1 C -1,1 C 93 % 987,7 hPa 0,0 l/m 0 min 0 min 0 W/m 9,7 km/h (2 Bft) 95,74 %
01.02.2019 01:20 -0,4 C -1,1 C -1,1 C 93 % 987,6 hPa 0,0 l/m 0 min 0 min 0 W/m 3,2 km/h (1 Bft) 95,74 %
01.02.2019 01:22 -0,4 C -1,1 C -1,7 C 93 % 987,6 hPa 0,0 l/m 0 min 0 min 0 W/m 6,4 km/h (2 Bft) 97,83 %
01.02.2019 01:24 -0,4 C -1,1 C -1,1 C 93 % 987,5 hPa 0,0 l/m 0 min 0 min 0 W/m 6,4 km/h (2 Bft) 93,62 %
01.02.2019 01:26 -0,4 C -1,1 C -1,7 C 93 % 987,5 hPa 0,0 l/m 0 min 0 min 0 W/m 6,4 km/h (2 Bft) 93,62 %
01.02.2019 01:28 -0,3 C -1,1 C -1,1 C 93 % 987,5 hPa 0,0 l/m 0 min 0 min 0 W/m 6,4 km/h (2 Bft) 95,74 %
01.02.2019 01:30 -0,3 C -1,1 C -1,1 C 93 % 987,5 hPa 0,0 l/m 0 min 0 min 0 W/m 9,7 km/h (2 Bft) 97,87 %
01.02.2019 01:32 -0,3 C -0,6 C -1,1 C 92 % 987,5 hPa 0,0 l/m 0 min 0 min 0 W/m 9,7 km/h (2 Bft) 97,87 %
01.02.2019 01:34 -0,3 C -0,6 C -1,1 C 92 % 987,5 hPa 0,0 l/m 0 min 0 min 0 W/m 6,4 km/h (2 Bft) 97,83 %
01.02.2019 01:36 -0,2 C -0,6 C -1,1 C 92 % 987,4 hPa 0,0 l/m 0 min 0 min 0 W/m 6,4 km/h (2 Bft) 95,74 %
01.02.2019 01:38 -0,2 C -0,6 C -1,1 C 92 % 987,4 hPa 0,0 l/m 0 min 0 min 0 W/m 6,4 km/h (2 Bft) 97,87 %
01.02.2019 01:40 -0,2 C -0,6 C -1,1 C 92 % 987,4 hPa 0,0 l/m 0 min 0 min 0 W/m 6,4 km/h (2 Bft) 97,87 %
01.02.2019 01:42 -0,2 C -0,6 C -1,1 C 92 % 987,4 hPa 0,0 l/m 0 min 0 min 0 W/m 6,4 km/h (2 Bft) 95,74 %
01.02.2019 01:44 -0,1 C -0,6 C -1,1 C 92 % 987,4 hPa 0,0 l/m 0 min 0 min 0 W/m 3,2 km/h (1 Bft) 97,87 %
01.02.2019 01:46 -0,1 C -0,6 C -1,1 C 92 % 987,4 hPa 0,0 l/m 0 min 0 min 0 W/m 6,4 km/h (2 Bft) 97,83 %
01.02.2019 01:48 -0,1 C -0,6 C -1,1 C 92 % 987,3 hPa 0,0 l/m 0 min 0 min 0 W/m 3,2 km/h (1 Bft) 100,00 %
01.02.2019 01:50 -0,1 C -0,6 C -1,1 C 92 % 987,3 hPa 0,0 l/m 0 min 0 min 0 W/m 6,4 km/h (2 Bft) 100,00 %
01.02.2019 01:52 -0,1 C -0,6 C -1,1 C 92 % 987,2 hPa 0,0 l/m 0 min 0 min 0 W/m 6,4 km/h (2 Bft) 97,87 %
01.02.2019 01:54 -0,1 C -0,6 C -1,1 C 92 % 987,1 hPa 0,0 l/m 0 min 0 min 0 W/m 9,7 km/h (2 Bft) 100,00 %
01.02.2019 01:56 -0,1 C -0,6 C -1,1 C 91 % 987,2 hPa 0,0 l/m 0 min 0 min 0 W/m 6,4 km/h (2 Bft) 97,87 %
01.02.2019 01:58 0,0 C -0,6 C -1,1 C 91 % 987,1 hPa 0,0 l/m 0 min 0 min 0 W/m 6,4 km/h (2 Bft) 100,00 %
01.02.2019 02:00 0,0 C -0,6 C -1,1 C 91 % 987,0 hPa 0,0 l/m 0 min 0 min 0 W/m 6,4 km/h (2 Bft) 100,00 %
01.02.2019 02:02 0,0 C -0,6 C -1,1 C 91 % 987,0 hPa 0,0 l/m 0 min 0 min 0 W/m 12,9 km/h (3 Bft) 100,00 %
01.02.2019 02:04 0,1 C -0,6 C -1,1 C 91 % 986,8 hPa 0,0 l/m 0 min 0 min 0 W/m 9,7 km/h (2 Bft) 100,00 %
01.02.2019 02:06 0,1 C -0,6 C -1,1 C 91 % 986,8 hPa 0,0 l/m 0 min 0 min 0 W/m 9,7 km/h (2 Bft) 98,31 %
01.02.2019 02:08 0,1 C -0,6 C -1,1 C 91 % 986,8 hPa 0,0 l/m 0 min 0 min 0 W/m 6,4 km/h (2 Bft) 100,00 %
01.02.2019 02:10 0,1 C -0,6 C -1,1 C 91 % 986,9 hPa 0,0 l/m 0 min 0 min 0 W/m 12,9 km/h (3 Bft) 100,00 %
01.02.2019 02:12 0,1 C -0,6 C -0,6 C 91 % 986,9 hPa 0,0 l/m 0 min 0 min 0 W/m 12,9 km/h (3 Bft) 100,00 %
01.02.2019 02:14 0,2 C -0,6 C -0,6 C 91 % 987,0 hPa 0,0 l/m 0 min 0 min 0 W/m 16,1 km/h (3 Bft) 97,87 %
01.02.2019 02:16 0,2 C -0,6 C -0,6 C 90 % 986,9 hPa 0,0 l/m 0 min 0 min 0 W/m 12,9 km/h (3 Bft) 100,00 %
01.02.2019 02:18 0,2 C -0,6 C -0,6 C 90 % 986,8 hPa 0,0 l/m 0 min 0 min 0 W/m 12,9 km/h (3 Bft) 100,00 %
01.02.2019 02:20 0,2 C -0,6 C -0,6 C 90 % 986,9 hPa 0,0 l/m 0 min 0 min 0 W/m 12,9 km/h (3 Bft) 100,00 %
01.02.2019 02:22 0,3 C -0,6 C -0,6 C 90 % 986,8 hPa 0,0 l/m 0 min 0 min 0 W/m 12,9 km/h (3 Bft) 100,00 %
01.02.2019 02:24 0,3 C -0,6 C -0,6 C 90 % 986,8 hPa 0,0 l/m 0 min 0 min 0 W/m 12,9 km/h (3 Bft) 100,00 %
01.02.2019 02:26 0,3 C -0,6 C -0,6 C 90 % 986,8 hPa 0,0 l/m 0 min 0 min 0 W/m 12,9 km/h (3 Bft) 100,00 %
01.02.2019 02:28 0,3 C -0,6 C -0,6 C 90 % 986,9 hPa 0,0 l/m 0 min 0 min 0 W/m 22,5 km/h (4 Bft) 100,00 %
01.02.2019 02:30 0,4 C -0,6 C -0,6 C 90 % 986,8 hPa 0,0 l/m 0 min 0 min 0 W/m 25,7 km/h (4 Bft) 100,00 %
01.02.2019 02:32 0,4 C -0,6 C -0,6 C 90 % 986,8 hPa 0,0 l/m 0 min 0 min 0 W/m 22,5 km/h (4 Bft) 97,87 %
01.02.2019 02:34 0,4 C -0,6 C -0,6 C 89 % 986,8 hPa 0,0 l/m 0 min 0 min 0 W/m 16,1 km/h (3 Bft) 100,00 %
01.02.2019 02:36 0,5 C -0,6 C -0,6 C 89 % 986,8 hPa 0,0 l/m 0 min 0 min 0 W/m 16,1 km/h (3 Bft) 100,00 %
01.02.2019 02:38 0,5 C -0,6 C -0,6 C 89 % 986,8 hPa 0,0 l/m 0 min 0 min 0 W/m 29,0 km/h (5 Bft) 95,74 %
01.02.2019 02:40 0,5 C -0,6 C -0,6 C 89 % 986,7 hPa 0,0 l/m 0 min 0 min 0 W/m 19,3 km/h (3 Bft) 100,00 %
01.02.2019 02:42 0,5 C -0,6 C -0,6 C 89 % 986,6 hPa 0,0 l/m 0 min 0 min 0 W/m 25,7 km/h (4 Bft) 100,00 %
01.02.2019 02:44 0,5 C -0,6 C -0,6 C 89 % 986,6 hPa 0,0 l/m 0 min 0 min 0 W/m 22,5 km/h (4 Bft) 97,87 %
01.02.2019 02:46 0,5 C -0,6 C -0,6 C 89 % 986,6 hPa 0,0 l/m 0 min 0 min 0 W/m 32,2 km/h (5 Bft) 97,92 %
01.02.2019 02:48 0,5 C -0,6 C -0,6 C 89 % 986,6 hPa 0,0 l/m 0 min 0 min 0 W/m 16,1 km/h (3 Bft) 95,74 %
01.02.2019 02:50 0,5 C -0,6 C -0,6 C 89 % 986,5 hPa 0,0 l/m 0 min 0 min 0 W/m 12,9 km/h (3 Bft) 97,87 %
01.02.2019 02:52 0,5 C 0,0 C -0,6 C 89 % 986,5 hPa 0,0 l/m 0 min 0 min 0 W/m 25,7 km/h (4 Bft) 97,87 %
01.02.2019 02:54 0,5 C 0,0 C -0,6 C 89 % 986,5 hPa 0,0 l/m 0 min 0 min 0 W/m 22,5 km/h (4 Bft) 97,83 %
01.02.2019 02:56 0,5 C 0,0 C -0,6 C 89 % 986,4 hPa 0,0 l/m 0 min 0 min 0 W/m 19,3 km/h (3 Bft) 97,87 %
01.02.2019 02:58 0,5 C -0,6 C -0,6 C 89 % 986,4 hPa 0,0 l/m 0 min 0 min 0 W/m 16,1 km/h (3 Bft) 97,87 %
01.02.2019 03:00 0,5 C -0,6 C -0,6 C 90 % 986,4 hPa 0,0 l/m 0 min 0 min 0 W/m 16,1 km/h (3 Bft) 97,87 %
01.02.2019 03:02 0,5 C -0,6 C -1,1 C 90 % 986,4 hPa 0,0 l/m 0 min 0 min 0 W/m 22,5 km/h (4 Bft) 97,87 %
01.02.2019 03:04 0,5 C -0,6 C -1,1 C 90 % 986,2 hPa 0,0 l/m 0 min 0 min 0 W/m 9,7 km/h (2 Bft) 95,74 %
01.02.2019 03:06 0,5 C -0,6 C -1,1 C 91 % 986,2 hPa 0,0 l/m 0 min 0 min 0 W/m 6,4 km/h (2 Bft) 95,65 %
01.02.2019 03:08 0,5 C -0,6 C -1,1 C 91 % 986,2 hPa 0,0 l/m 0 min 0 min 0 W/m 12,9 km/h (3 Bft) 95,74 %
01.02.2019 03:10 0,4 C -0,6 C -1,1 C 91 % 986,2 hPa 0,0 l/m 0 min 0 min 0 W/m 12,9 km/h (3 Bft) 97,87 %
01.02.2019 03:12 0,4 C -0,6 C -1,1 C 91 % 986,1 hPa 0,0 l/m 0 min 0 min 0 W/m 12,9 km/h (3 Bft) 95,74 %
01.02.2019 03:14 0,3 C -0,6 C -1,1 C 92 % 986,1 hPa 0,0 l/m 0 min 0 min 0 W/m 9,7 km/h (2 Bft) 95,74 %
01.02.2019 03:16 0,3 C -0,6 C -1,1 C 92 % 986,0 hPa 0,0 l/m 0 min 2 min 0 W/m 12,9 km/h (3 Bft) 95,74 %
01.02.2019 03:18 0,3 C -0,6 C -1,1 C 92 % 986,0 hPa 0,0 l/m 0 min 0 min 0 W/m 12,9 km/h (3 Bft) 97,83 %
01.02.2019 03:20 0,3 C -0,6 C -1,1 C 92 % 986,0 hPa 0,0 l/m 0 min 0 min 0 W/m 9,7 km/h (2 Bft) 97,87 %
01.02.2019 03:22 0,3 C -0,6 C -1,1 C 92 % 986,0 hPa 0,0 l/m 0 min 0 min 0 W/m 9,7 km/h (2 Bft) 95,74 %
01.02.2019 03:24 0,3 C -0,6 C -1,1 C 93 % 986,0 hPa 0,0 l/m 0 min 2 min 0 W/m 9,7 km/h (2 Bft) 93,62 %
01.02.2019 03:26 0,3 C -0,6 C -1,1 C 93 % 986,0 hPa 0,0 l/m 0 min 2 min 0 W/m 9,7 km/h (2 Bft) 95,74 %
01.02.2019 03:28 0,3 C -0,6 C -1,1 C 93 % 986,0 hPa 0,0 l/m 0 min 2 min 0 W/m 9,7 km/h (2 Bft) 95,74 %
01.02.2019 03:30 0,3 C -0,6 C -1,1 C 93 % 986,0 hPa 0,0 l/m 0 min 2 min 0 W/m 6,4 km/h (2 Bft) 95,65 %
01.02.2019 03:32 0,3 C -0,6 C -1,1 C 93 % 986,0 hPa 0,0 l/m 0 min 2 min 0 W/m 9,7 km/h (2 Bft) 95,74 %
01.02.2019 03:34 0,3 C -0,6 C -1,1 C 93 % 985,9 hPa 0,0 l/m 0 min 2 min 0 W/m 9,7 km/h (2 Bft) 95,74 %
01.02.2019 03:36 0,3 C -0,6 C -1,1 C 93 % 986,0 hPa 0,0 l/m 0 min 2 min 0 W/m 12,9 km/h (3 Bft) 91,49 %
01.02.2019 03:38 0,2 C -0,6 C -1,1 C 94 % 986,0 hPa 0,0 l/m 0 min 2 min 0 W/m 9,7 km/h (2 Bft) 97,87 %
01.02.2019 03:40 0,2 C -0,6 C -1,1 C 94 % 985,9 hPa 0,0 l/m 0 min 2 min 0 W/m 6,4 km/h (2 Bft) 95,65 %
01.02.2019 03:42 0,2 C -0,6 C -1,1 C 94 % 985,9 hPa 0,0 l/m 0 min 2 min 0 W/m 3,2 km/h (1 Bft) 95,74 %
01.02.2019 03:44 0,2 C -0,6 C -1,1 C 94 % 985,8 hPa 0,0 l/m 0 min 2 min 0 W/m 6,4 km/h (2 Bft) 95,74 %
01.02.2019 03:46 0,2 C -0,6 C -1,1 C 94 % 985,8 hPa 0,0 l/m 0 min 2 min 0 W/m 9,7 km/h (2 Bft) 97,87 %
01.02.2019 03:48 0,2 C -0,6 C -1,1 C 94 % 985,7 hPa 0,0 l/m 0 min 0 min 0 W/m 9,7 km/h (2 Bft) 91,49 %
01.02.2019 03:50 0,2 C -0,6 C -1,1 C 94 % 985,7 hPa 0,0 l/m 0 min 2 min 0 W/m 9,7 km/h (2 Bft) 95,74 %
01.02.2019 03:52 0,2 C -0,6 C -1,1 C 94 % 985,7 hPa 0,0 l/m 0 min 2 min 0 W/m 9,7 km/h (2 Bft) 95,74 %
01.02.2019 03:54 0,2 C -0,6 C -1,1 C 94 % 985,7 hPa 0,0 l/m 0 min 2 min 0 W/m 6,4 km/h (2 Bft) 95,65 %
01.02.2019 03:56 0,2 C -0,6 C -1,1 C 95 % 985,7 hPa 0,0 l/m 0 min 2 min 0 W/m 16,1 km/h (3 Bft) 95,74 %
01.02.2019 03:58 0,2 C -0,6 C -1,1 C 95 % 985,7 hPa 0,0 l/m 0 min 2 min 0 W/m 9,7 km/h (2 Bft) 95,74 %
01.02.2019 04:00 0,2 C -0,6 C -1,1 C 95 % 985,6 hPa 0,0 l/m 0 min 0 min 0 W/m 12,9 km/h (3 Bft) 95,74 %
01.02.2019 04:05 0,2 C -0,6 C -1,1 C 95 % 985,5 hPa 0,0 l/m 0 min 0 min 0 W/m 12,9 km/h (3 Bft) 95,65 %
01.02.2019 04:06 0,2 C -0,6 C -1,1 C 95 % 985,5 hPa 0,0 l/m 0 min 0 min 0 W/m 6,4 km/h (2 Bft) 95,65 %
01.02.2019 04:08 0,2 C -0,6 C -1,1 C 95 % 985,5 hPa 0,0 l/m 0 min 0 min 0 W/m 9,7 km/h (2 Bft) 97,87 %
01.02.2019 04:10 0,2 C -0,6 C -1,1 C 95 % 985,5 hPa 0,0 l/m 0 min 2 min 0 W/m 9,7 km/h (2 Bft) 95,74 %
01.02.2019 04:12 0,2 C -0,6 C -1,1 C 95 % 985,4 hPa 0,0 l/m 0 min 2 min 0 W/m 12,9 km/h (3 Bft) 95,74 %
01.02.2019 04:14 0,2 C -0,6 C -1,1 C 95 % 985,4 hPa 0,0 l/m 0 min 2 min 0 W/m 9,7 km/h (2 Bft) 95,74 %
01.02.2019 04:16 0,2 C -0,6 C -1,1 C 95 % 985,5 hPa 0,0 l/m 0 min 2 min 0 W/m 6,4 km/h (2 Bft) 93,48 %
01.02.2019 04:18 0,2 C -0,6 C -1,1 C 95 % 985,4 hPa 0,0 l/m 0 min 2 min 0 W/m 6,4 km/h (2 Bft) 97,87 %
01.02.2019 04:20 0,2 C -0,6 C -1,1 C 95 % 985,3 hPa 0,0 l/m 0 min 2 min 0 W/m 16,1 km/h (3 Bft) 97,87 %
01.02.2019 04:22 0,2 C -0,6 C -1,1 C 95 % 985,3 hPa 0,0 l/m 0 min 2 min 0 W/m 9,7 km/h (2 Bft) 95,74 %
01.02.2019 04:24 0,2 C -0,6 C -1,1 C 96 % 985,3 hPa 0,0 l/m 0 min 2 min 0 W/m 9,7 km/h (2 Bft) 100,00 %
01.02.2019 04:26 0,1 C -0,6 C -1,1 C 96 % 985,3 hPa 0,0 l/m 0 min 2 min 0 W/m 9,7 km/h (2 Bft) 97,87 %
01.02.2019 04:28 0,1 C -0,6 C -1,1 C 96 % 985,4 hPa 0,0 l/m 0 min 2 min 0 W/m 12,9 km/h (3 Bft) 100,00 %
01.02.2019 04:30 0,1 C -0,6 C -1,1 C 96 % 985,3 hPa 0,0 l/m 0 min 2 min 0 W/m 9,7 km/h (2 Bft) 100,00 %
01.02.2019 04:32 0,1 C -0,6 C -1,1 C 96 % 985,3 hPa 0,0 l/m 0 min 2 min 0 W/m 3,2 km/h (1 Bft) 100,00 %
01.02.2019 04:34 0,1 C -0,6 C -1,1 C 96 % 985,2 hPa 0,0 l/m 0 min 2 min 0 W/m 9,7 km/h (2 Bft) 100,00 %
01.02.2019 04:36 0,1 C -0,6 C -1,1 C 96 % 985,3 hPa 0,0 l/m 0 min 0 min 0 W/m 6,4 km/h (2 Bft) 100,00 %
01.02.2019 04:38 0,1 C -0,6 C -1,1 C 96 % 985,3 hPa 0,0 l/m 0 min 0 min 0 W/m 6,4 km/h (2 Bft) 97,87 %
01.02.2019 04:40 0,1 C -0,6 C -1,1 C 96 % 985,4 hPa 0,0 l/m 0 min 0 min 0 W/m 9,7 km/h (2 Bft) 100,00 %
01.02.2019 04:42 0,1 C -0,6 C -1,1 C 96 % 985,3 hPa 0,0 l/m 0 min 0 min 0 W/m 6,4 km/h (2 Bft) 100,00 %
01.02.2019 04:44 0,1 C -0,6 C -1,1 C 96 % 985,2 hPa 0,0 l/m 0 min 0 min 0 W/m 6,4 km/h (2 Bft) 100,00 %
01.02.2019 04:46 0,1 C -0,6 C -1,1 C 96 % 985,2 hPa 0,0 l/m 0 min 2 min 0 W/m 6,4 km/h (2 Bft) 100,00 %
01.02.2019 04:48 0,1 C -0,6 C -1,1 C 96 % 985,2 hPa 0,0 l/m 0 min 2 min 0 W/m 6,4 km/h (2 Bft) 100,00 %
01.02.2019 04:50 0,1 C -0,6 C -1,1 C 96 % 985,2 hPa 0,0 l/m 0 min 0 min 0 W/m 3,2 km/h (1 Bft) 100,00 %
01.02.2019 04:52 0,1 C -0,6 C -1,1 C 96 % 985,3 hPa 0,0 l/m 0 min 0 min 0 W/m 6,4 km/h (2 Bft) 100,00 %
01.02.2019 04:54 0,1 C -0,6 C -1,1 C 96 % 985,3 hPa 0,0 l/m 0 min 0 min 0 W/m 12,9 km/h (3 Bft) 97,87 %
01.02.2019 04:56 0,1 C -0,6 C -1,1 C 96 % 985,2 hPa 0,0 l/m 0 min 2 min 0 W/m 12,9 km/h (3 Bft) 100,00 %
01.02.2019 04:58 0,2 C -0,6 C -1,1 C 96 % 985,2 hPa 0,0 l/m 0 min 0 min 0 W/m 16,1 km/h (3 Bft) 100,00 %
01.02.2019 05:00 0,2 C -0,6 C -1,1 C 96 % 985,3 hPa 0,0 l/m 0 min 2 min 0 W/m 12,9 km/h (3 Bft) 100,00 %
01.02.2019 05:02 0,2 C -0,6 C -1,1 C 96 % 985,2 hPa 0,0 l/m 0 min 2 min 0 W/m 12,9 km/h (3 Bft) 100,00 %
01.02.2019 05:04 0,2 C -0,6 C -1,1 C 96 % 985,2 hPa 0,0 l/m 0 min 2 min 0 W/m 6,4 km/h (2 Bft) 100,00 %
01.02.2019 05:05 0,2 C -0,6 C -1,1 C 96 % 985,2 hPa 0,0 l/m 0 min 0 min 0 W/m 12,9 km/h (3 Bft) 100,00 %
01.02.2019 05:10 0,2 C -0,6 C -1,1 C 96 % 985,2 hPa 0,0 l/m 0 min 0 min 0 W/m 12,9 km/h (3 Bft) 100,00 %
01.02.2019 05:12 0,2 C -0,6 C -1,1 C 96 % 985,2 hPa 0,0 l/m 0 min 0 min 0 W/m 9,7 km/h (2 Bft) 90,00 %
01.02.2019 05:14 0,2 C -0,6 C -1,1 C 96 % 985,2 hPa 0,0 l/m 0 min 0 min 0 W/m 12,9 km/h (3 Bft) 100,00 %
01.02.2019 05:16 0,2 C -0,6 C -1,1 C 96 % 985,3 hPa 0,0 l/m 0 min 0 min 0 W/m 12,9 km/h (3 Bft) 100,00 %
01.02.2019 05:18 0,3 C -0,6 C -1,1 C 96 % 985,1 hPa 0,0 l/m 0 min 0 min 0 W/m 12,9 km/h (3 Bft) 93,62 %
01.02.2019 05:20 0,3 C -0,6 C -1,1 C 96 % 985,1 hPa 0,0 l/m 0 min 0 min 0 W/m 16,1 km/h (3 Bft) 100,00 %
01.02.2019 05:22 0,3 C -0,6 C -1,1 C 96 % 985,1 hPa 0,0 l/m 0 min 0 min 0 W/m 16,1 km/h (3 Bft) 100,00 %
01.02.2019 05:24 0,3 C 0,0 C -1,1 C 96 % 985,1 hPa 0,0 l/m 0 min 0 min 0 W/m 16,1 km/h (3 Bft) 95,65 %
01.02.2019 05:26 0,3 C 0,0 C -0,6 C 96 % 985,1 hPa 0,0 l/m 0 min 0 min 0 W/m 16,1 km/h (3 Bft) 97,87 %
01.02.2019 05:28 0,3 C 0,0 C -0,6 C 96 % 985,1 hPa 0,0 l/m 0 min 0 min 0 W/m 16,1 km/h (3 Bft) 100,00 %
01.02.2019 05:30 0,3 C 0,0 C -0,6 C 96 % 985,1 hPa 0,0 l/m 0 min 0 min 0 W/m 22,5 km/h (4 Bft) 100,00 %
01.02.2019 05:32 0,3 C 0,0 C -0,6 C 96 % 985,1 hPa 0,0 l/m 0 min 0 min 0 W/m 16,1 km/h (3 Bft) 100,00 %
01.02.2019 05:34 0,3 C 0,0 C -0,6 C 96 % 985,2 hPa 0,0 l/m 0 min 0 min 0 W/m 22,5 km/h (4 Bft) 100,00 %
01.02.2019 05:36 0,3 C 0,0 C -0,6 C 96 % 985,2 hPa 0,0 l/m 0 min 0 min 0 W/m 22,5 km/h (4 Bft) 97,83 %
01.02.2019 05:38 0,4 C 0,0 C -0,6 C 96 % 985,2 hPa 0,0 l/m 0 min 0 min 0 W/m 16,1 km/h (3 Bft) 97,87 %
01.02.2019 05:40 0,4 C 0,0 C -0,6 C 97 % 985,1 hPa 0,0 l/m 0 min 0 min 0 W/m 12,9 km/h (3 Bft) 100,00 %
01.02.2019 05:42 0,4 C 0,0 C -0,6 C 97 % 985,2 hPa 0,0 l/m 0 min 0 min 0 W/m 16,1 km/h (3 Bft) 100,00 %
01.02.2019 05:44 0,4 C 0,0 C -0,6 C 97 % 985,2 hPa 0,0 l/m 0 min 0 min 0 W/m 9,7 km/h (2 Bft) 100,00 %
01.02.2019 05:46 0,4 C 0,0 C -0,6 C 96 % 985,2 hPa 0,0 l/m 0 min 0 min 0 W/m 16,1 km/h (3 Bft) 100,00 %
01.02.2019 05:48 0,4 C 0,0 C -0,6 C 96 % 985,2 hPa 0,0 l/m 0 min 0 min 0 W/m 22,5 km/h (4 Bft) 100,00 %
01.02.2019 05:50 0,4 C 0,0 C -0,6 C 96 % 985,2 hPa 0,0 l/m 0 min 0 min 0 W/m 22,5 km/h (4 Bft) 100,00 %
01.02.2019 05:52 0,4 C 0,0 C -0,6 C 96 % 985,1 hPa 0,0 l/m 0 min 0 min 0 W/m 16,1 km/h (3 Bft) 100,00 %
01.02.2019 05:54 0,4 C 0,0 C -0,6 C 96 % 985,1 hPa 0,0 l/m 0 min 0 min 0 W/m 16,1 km/h (3 Bft) 100,00 %
01.02.2019 05:56 0,4 C 0,0 C -0,6 C 96 % 985,1 hPa 0,0 l/m 0 min 0 min 0 W/m 16,1 km/h (3 Bft) 100,00 %
01.02.2019 05:58 0,5 C 0,0 C -0,6 C 96 % 985,2 hPa 0,0 l/m 0 min 0 min 0 W/m 25,7 km/h (4 Bft) 97,87 %
01.02.2019 06:00 0,5 C 0,0 C -0,6 C 96 % 985,2 hPa 0,0 l/m 0 min 0 min 0 W/m 16,1 km/h (3 Bft) 100,00 %
01.02.2019 06:02 0,5 C 0,0 C -0,6 C 96 % 985,2 hPa 0,0 l/m 0 min 0 min 0 W/m 12,9 km/h (3 Bft) 97,87 %
01.02.2019 06:04 0,5 C 0,0 C -0,6 C 96 % 985,2 hPa 0,0 l/m 0 min 0 min 0 W/m 16,1 km/h (3 Bft) 100,00 %
01.02.2019 06:08 0,5 C 0,0 C -0,6 C 96 % 985,2 hPa 0,0 l/m 0 min 0 min 0 W/m 19,3 km/h (3 Bft) 98,94 %
01.02.2019 06:10 0,5 C 0,0 C -0,6 C 96 % 985,2 hPa 0,0 l/m 0 min 0 min 0 W/m 16,1 km/h (3 Bft) 97,87 %
01.02.2019 06:12 0,5 C 0,0 C -0,6 C 96 % 985,2 hPa 0,0 l/m 0 min 0 min 0 W/m 12,9 km/h (3 Bft) 95,65 %
01.02.2019 06:14 0,5 C 0,0 C -0,6 C 96 % 985,2 hPa 0,0 l/m 0 min 0 min 0 W/m 16,1 km/h (3 Bft) 95,74 %
01.02.2019 06:16 0,5 C 0,0 C -0,6 C 96 % 985,2 hPa 0,0 l/m 0 min 0 min 0 W/m 16,1 km/h (3 Bft) 95,74 %
01.02.2019 06:18 0,5 C 0,0 C -0,6 C 96 % 985,2 hPa 0,0 l/m 0 min 0 min 0 W/m 19,3 km/h (3 Bft) 93,62 %
01.02.2019 06:20 0,5 C 0,0 C -0,6 C 96 % 985,2 hPa 0,0 l/m 0 min 0 min 0 W/m 12,9 km/h (3 Bft) 89,36 %
01.02.2019 06:22 0,5 C 0,0 C -0,6 C 96 % 985,3 hPa 0,0 l/m 0 min 0 min 0 W/m 16,1 km/h (3 Bft) 91,30 %
01.02.2019 06:24 0,5 C 0,0 C -0,6 C 96 % 985,3 hPa 0,0 l/m 0 min 0 min 0 W/m 12,9 km/h (3 Bft) 93,62 %
01.02.2019 06:26 0,5 C 0,0 C -0,6 C 96 % 985,3 hPa 0,0 l/m 0 min 0 min 0 W/m 12,9 km/h (3 Bft) 93,62 %
01.02.2019 06:28 0,5 C 0,0 C -0,6 C 96 % 985,3 hPa 0,0 l/m 0 min 0 min 0 W/m 16,1 km/h (3 Bft) 91,49 %
01.02.2019 06:30 0,5 C 0,0 C -0,6 C 96 % 985,3 hPa 0,0 l/m 0 min 0 min 0 W/m 16,1 km/h (3 Bft) 91,49 %
01.02.2019 06:32 0,5 C -0,6 C -0,6 C 96 % 985,3 hPa 0,0 l/m 0 min 2 min 0 W/m 22,5 km/h (4 Bft) 93,62 %
01.02.2019 06:34 0,5 C 0,0 C -0,6 C 96 % 985,4 hPa 0,0 l/m 0 min 2 min 0 W/m 16,1 km/h (3 Bft) 93,48 %
01.02.2019 06:36 0,6 C 0,0 C -0,6 C 96 % 985,4 hPa 0,0 l/m 0 min 2 min 0 W/m 12,9 km/h (3 Bft) 93,62 %
01.02.2019 06:38 0,6 C 0,0 C -0,6 C 96 % 985,5 hPa 0,0 l/m 0 min 2 min 0 W/m 16,1 km/h (3 Bft) 91,67 %
01.02.2019 06:40 0,6 C 0,0 C -0,6 C 96 % 985,5 hPa 0,0 l/m 0 min 0 min 0 W/m 16,1 km/h (3 Bft) 93,62 %
01.02.2019 06:42 0,6 C 0,0 C -0,6 C 96 % 985,5 hPa 0,0 l/m 0 min 0 min 0 W/m 12,9 km/h (3 Bft) 93,62 %
01.02.2019 06:44 0,6 C 0,0 C -0,6 C 96 % 985,6 hPa 0,0 l/m 0 min 0 min 0 W/m 12,9 km/h (3 Bft) 91,49 %
01.02.2019 06:46 0,6 C 0,0 C -0,6 C 96 % 985,6 hPa 0,0 l/m 0 min 0 min 0 W/m 9,7 km/h (2 Bft) 93,48 %
01.02.2019 06:48 0,6 C 0,0 C -0,6 C 96 % 985,6 hPa 0,0 l/m 0 min 0 min 0 W/m 16,1 km/h (3 Bft) 93,62 %
01.02.2019 06:50 0,7 C 0,0 C -0,6 C 96 % 985,7 hPa 0,0 l/m 0 min 0 min 0 W/m 12,9 km/h (3 Bft) 93,62 %
01.02.2019 06:52 0,7 C 0,0 C -0,6 C 96 % 985,7 hPa 0,0 l/m 0 min 0 min 0 W/m 12,9 km/h (3 Bft) 93,62 %
01.02.2019 06:54 0,7 C 0,0 C -0,6 C 96 % 985,7 hPa 0,0 l/m 0 min 0 min 0 W/m 16,1 km/h (3 Bft) 89,36 %
01.02.2019 06:56 0,7 C 0,0 C -0,6 C 96 % 985,8 hPa 0,0 l/m 0 min 0 min 0 W/m 16,1 km/h (3 Bft) 93,48 %
01.02.2019 06:58 0,7 C 0,0 C -0,6 C 96 % 985,8 hPa 0,0 l/m 0 min 0 min 0 W/m 9,7 km/h (2 Bft) 91,49 %
01.02.2019 07:00 0,7 C 0,0 C -0,6 C 96 % 985,9 hPa 0,0 l/m 0 min 0 min 0 W/m 6,4 km/h (2 Bft) 95,74 %
01.02.2019 07:02 0,7 C 0,0 C -0,6 C 96 % 985,9 hPa 0,0 l/m 0 min 0 min 0 W/m 9,7 km/h (2 Bft) 91,49 %
01.02.2019 07:04 0,7 C 0,0 C -0,6 C 96 % 985,9 hPa 0,0 l/m 0 min 0 min 0 W/m 9,7 km/h (2 Bft) 91,49 %
01.02.2019 07:06 0,7 C 0,0 C -0,6 C 96 % 985,9 hPa 0,0 l/m 0 min 0 min 0 W/m 16,1 km/h (3 Bft) 95,74 %
01.02.2019 07:08 0,7 C 0,0 C -0,6 C 96 % 985,9 hPa 0,0 l/m 0 min 0 min 0 W/m 12,9 km/h (3 Bft) 97,22 %
01.02.2019 07:10 0,8 C 0,0 C -0,6 C 96 % 985,9 hPa 0,0 l/m 0 min 0 min 0 W/m 12,9 km/h (3 Bft) 97,87 %
01.02.2019 07:12 0,8 C 0,0 C -0,6 C 96 % 985,9 hPa 0,0 l/m 0 min 0 min 0 W/m 9,7 km/h (2 Bft) 97,83 %
01.02.2019 07:14 0,8 C 0,0 C -0,6 C 96 % 985,9 hPa 0,0 l/m 0 min 0 min 0 W/m 16,1 km/h (3 Bft) 97,87 %
01.02.2019 07:16 0,8 C 0,0 C -0,6 C 96 % 985,9 hPa 0,0 l/m 0 min 0 min 0 W/m 12,9 km/h (3 Bft) 100,00 %
01.02.2019 07:18 0,8 C 0,0 C -0,6 C 96 % 985,9 hPa 0,0 l/m 0 min 0 min 0 W/m 9,7 km/h (2 Bft) 97,87 %
01.02.2019 07:20 0,8 C 0,0 C -0,6 C 96 % 985,9 hPa 0,0 l/m 0 min 0 min 0 W/m 9,7 km/h (2 Bft) 100,00 %
01.02.2019 07:22 0,8 C 0,0 C -0,6 C 96 % 985,9 hPa 0,0 l/m 0 min 0 min 0 W/m 9,7 km/h (2 Bft) 100,00 %
01.02.2019 07:24 0,8 C 0,0 C -0,6 C 96 % 985,9 hPa 0,0 l/m 0 min 0 min 0 W/m 16,1 km/h (3 Bft) 100,00 %
01.02.2019 07:26 0,8 C 0,0 C -0,6 C 96 % 985,9 hPa 0,0 l/m 0 min 0 min 0 W/m 12,9 km/h (3 Bft) 100,00 %
01.02.2019 07:28 0,8 C 0,0 C -0,6 C 96 % 985,9 hPa 0,0 l/m 0 min 0 min 0 W/m 12,9 km/h (3 Bft) 97,87 %
01.02.2019 07:30 0,8 C 0,0 C -0,6 C 96 % 985,9 hPa 0,0 l/m 0 min 0 min 0 W/m 9,7 km/h (2 Bft) 100,00 %
01.02.2019 07:32 0,8 C 0,0 C -0,6 C 96 % 986,0 hPa 0,0 l/m 0 min 0 min 0 W/m 12,9 km/h (3 Bft) 100,00 %
01.02.2019 07:34 0,8 C 0,0 C -0,6 C 96 % 986,0 hPa 0,0 l/m 0 min 0 min 0 W/m 9,7 km/h (2 Bft) 100,00 %
01.02.2019 07:36 0,8 C 0,0 C -0,6 C 96 % 986,0 hPa 0,0 l/m 0 min 0 min 0 W/m 16,1 km/h (3 Bft) 100,00 %
01.02.2019 07:38 0,8 C 0,0 C -0,6 C 96 % 986,0 hPa 0,0 l/m 0 min 0 min 0 W/m 16,1 km/h (3 Bft) 100,00 %
01.02.2019 07:40 0,8 C 0,0 C -0,6 C 96 % 986,1 hPa 0,0 l/m 0 min 0 min 0 W/m 12,9 km/h (3 Bft) 97,87 %
01.02.2019 07:42 0,8 C 0,0 C -0,6 C 96 % 986,1 hPa 0,0 l/m 0 min 0 min 0 W/m 9,7 km/h (2 Bft) 100,00 %
01.02.2019 07:44 0,8 C 0,0 C -0,6 C 96 % 986,1 hPa 0,0 l/m 0 min 0 min 0 W/m 6,4 km/h (2 Bft) 100,00 %
01.02.2019 07:46 0,8 C 0,0 C -0,6 C 96 % 986,1 hPa 0,0 l/m 0 min 0 min 0 W/m 9,7 km/h (2 Bft) 100,00 %
01.02.2019 07:48 0,9 C 0,0 C -0,6 C 96 % 986,1 hPa 0,0 l/m 0 min 0 min 0 W/m 6,4 km/h (2 Bft) 100,00 %
01.02.2019 07:50 0,9 C 0,0 C -0,6 C 96 % 986,2 hPa 0,0 l/m 0 min 0 min 0 W/m 6,4 km/h (2 Bft) 100,00 %
01.02.2019 07:52 0,9 C 0,0 C -0,6 C 96 % 986,3 hPa 0,0 l/m 0 min 0 min 0 W/m 9,7 km/h (2 Bft) 97,87 %
01.02.2019 07:54 0,9 C 0,0 C -0,6 C 96 % 986,3 hPa 0,0 l/m 0 min 0 min 0 W/m 6,4 km/h (2 Bft) 100,00 %
01.02.2019 07:56 0,9 C 0,0 C -0,6 C 96 % 986,3 hPa 0,0 l/m 0 min 0 min 0 W/m 6,4 km/h (2 Bft) 100,00 %
01.02.2019 07:58 0,9 C 0,0 C -0,6 C 96 % 986,3 hPa 0,0 l/m 0 min 0 min 0 W/m 9,7 km/h (2 Bft) 100,00 %
01.02.2019 08:00 0,9 C 0,0 C -0,6 C 96 % 986,3 hPa 0,0 l/m 0 min 0 min 0 W/m 9,7 km/h (2 Bft) 100,00 %
01.02.2019 08:02 0,9 C 0,0 C -0,6 C 96 % 986,3 hPa 0,0 l/m 0 min 0 min 0 W/m 9,7 km/h (2 Bft) 100,00 %
01.02.2019 08:04 0,9 C 0,0 C -0,6 C 96 % 986,4 hPa 0,0 l/m 0 min 0 min 0 W/m 9,7 km/h (2 Bft) 100,00 %
01.02.2019 08:06 0,9 C 0,0 C -0,6 C 96 % 986,5 hPa 0,0 l/m 0 min 0 min 0 W/m 9,7 km/h (2 Bft) 100,00 %
01.02.2019 08:08 0,9 C 0,6 C 0,0 C 96 % 986,5 hPa 0,0 l/m 0 min 0 min 0 W/m 9,7 km/h (2 Bft) 100,00 %
01.02.2019 08:10 0,9 C 0,6 C -0,6 C 96 % 986,6 hPa 0,0 l/m 0 min 0 min 0 W/m 9,7 km/h (2 Bft) 100,00 %
01.02.2019 08:12 0,9 C 0,0 C -0,6 C 96 % 986,6 hPa 0,0 l/m 0 min 0 min 0 W/m 9,7 km/h (2 Bft) 100,00 %
01.02.2019 08:15 0,9 C 0,6 C -0,6 C 96 % 986,7 hPa 0,0 l/m 0 min 0 min 0 W/m 12,9 km/h (3 Bft) 100,00 %
01.02.2019 08:21 0,9 C 0,6 C -0,6 C 96 % 986,8 hPa 0,0 l/m 0 min 0 min 0 W/m 12,9 km/h (3 Bft) 97,18 %
01.02.2019 08:22 0,9 C 0,6 C -0,6 C 96 % 986,8 hPa 0,0 l/m 0 min 0 min 0 W/m 9,7 km/h (2 Bft) 100,00 %
01.02.2019 08:24 0,9 C 0,6 C -0,6 C 96 % 986,8 hPa 0,0 l/m 0 min 0 min 0 W/m 12,9 km/h (3 Bft) 95,65 %
01.02.2019 08:26 0,9 C 0,6 C -0,6 C 96 % 986,8 hPa 0,0 l/m 0 min 0 min 0 W/m 12,9 km/h (3 Bft) 97,87 %
01.02.2019 08:28 0,9 C 0,6 C 0,0 C 96 % 986,8 hPa 0,0 l/m 0 min 0 min 0 W/m 9,7 km/h (2 Bft) 97,87 %
01.02.2019 08:30 0,9 C 0,6 C 0,0 C 96 % 986,9 hPa 0,0 l/m 0 min 0 min 0 W/m 9,7 km/h (2 Bft) 95,74 %
01.02.2019 08:32 1,0 C 0,6 C 0,0 C 96 % 986,9 hPa 0,0 l/m 0 min 0 min 0 W/m 6,4 km/h (2 Bft) 100,00 %
01.02.2019 08:34 1,0 C 0,6 C 0,0 C 96 % 986,8 hPa 0,0 l/m 0 min 0 min 0 W/m 6,4 km/h (2 Bft) 97,87 %
01.02.2019 08:36 1,0 C 0,6 C 0,0 C 96 % 986,8 hPa 0,0 l/m 0 min 0 min 0 W/m 6,4 km/h (2 Bft) 96,55 %
01.02.2019 08:38 1,0 C 0,6 C 0,0 C 96 % 986,9 hPa 0,2 l/m 0 min 0 min 0 W/m 12,9 km/h (3 Bft) 97,14 %
01.02.2019 08:40 1,0 C 0,6 C 0,0 C 96 % 986,9 hPa 0,0 l/m 0 min 0 min 0 W/m 16,1 km/h (3 Bft) 100,00 %
01.02.2019 08:42 1,0 C 0,6 C 0,0 C 96 % 986,9 hPa 0,0 l/m 0 min 0 min 3 W/m 9,7 km/h (2 Bft) 100,00 %
01.02.2019 08:44 1,0 C 0,6 C 0,0 C 96 % 986,9 hPa 0,0 l/m 0 min 0 min 5 W/m 12,9 km/h (3 Bft) 100,00 %
01.02.2019 08:46 1,0 C 0,6 C 0,0 C 96 % 986,9 hPa 0,0 l/m 0 min 0 min 5 W/m 12,9 km/h (3 Bft) 95,74 %
01.02.2019 08:48 1,1 C 0,6 C 0,0 C 96 % 987,0 hPa 0,0 l/m 0 min 0 min 5 W/m 9,7 km/h (2 Bft) 95,65 %
01.02.2019 08:50 1,1 C 0,6 C 0,0 C 96 % 986,9 hPa 0,0 l/m 0 min 0 min 5 W/m 16,1 km/h (3 Bft) 97,87 %
01.02.2019 08:52 1,1 C 0,6 C 0,0 C 96 % 986,9 hPa 0,0 l/m 0 min 0 min 5 W/m 12,9 km/h (3 Bft) 97,87 %
01.02.2019 08:54 1,1 C 0,6 C 0,0 C 96 % 986,9 hPa 0,0 l/m 0 min 0 min 5 W/m 12,9 km/h (3 Bft) 97,87 %
01.02.2019 08:56 1,1 C 0,6 C 0,0 C 96 % 987,0 hPa 0,0 l/m 0 min 0 min 6 W/m 9,7 km/h (2 Bft) 97,87 %
01.02.2019 08:58 1,1 C 0,6 C 0,0 C 96 % 986,9 hPa 0,0 l/m 0 min 0 min 7 W/m 12,9 km/h (3 Bft) 95,65 %
01.02.2019 09:00 1,1 C 0,6 C 0,0 C 96 % 986,9 hPa 0,0 l/m 0 min 0 min 7 W/m 9,7 km/h (2 Bft) 91,49 %
01.02.2019 09:02 1,1 C 0,6 C 0,0 C 96 % 987,0 hPa 0,0 l/m 0 min 0 min 8 W/m 9,7 km/h (2 Bft) 91,49 %
01.02.2019 09:04 1,1 C 0,6 C 0,0 C 96 % 987,0 hPa 0,0 l/m 0 min 0 min 9 W/m 9,7 km/h (2 Bft) 95,74 %
01.02.2019 09:06 1,1 C 0,6 C 0,0 C 96 % 987,1 hPa 0,0 l/m 0 min 0 min 9 W/m 12,9 km/h (3 Bft) 96,61 %
01.02.2019 09:08 1,1 C 0,6 C 0,0 C 96 % 987,1 hPa 0,0 l/m 0 min 0 min 8 W/m 9,7 km/h (2 Bft) 94,29 %
01.02.2019 09:10 1,1 C 0,6 C 0,0 C 96 % 987,1 hPa 0,0 l/m 0 min 0 min 9 W/m 12,9 km/h (3 Bft) 95,74 %
01.02.2019 09:12 1,1 C 0,6 C 0,0 C 96 % 987,1 hPa 0,0 l/m 0 min 0 min 10 W/m 12,9 km/h (3 Bft) 97,87 %
01.02.2019 09:14 1,1 C 0,6 C 0,0 C 96 % 987,1 hPa 0,0 l/m 0 min 0 min 12 W/m 9,7 km/h (2 Bft) 95,74 %
01.02.2019 09:16 1,1 C 0,6 C 0,0 C 96 % 987,1 hPa 0,0 l/m 0 min 0 min 14 W/m 12,9 km/h (3 Bft) 93,62 %
01.02.2019 09:18 1,1 C 0,6 C 0,0 C 96 % 987,1 hPa 0,0 l/m 0 min 0 min 17 W/m 9,7 km/h (2 Bft) 93,62 %
01.02.2019 09:20 1,1 C 0,6 C 0,0 C 96 % 987,1 hPa 0,2 l/m 0 min 0 min 22 W/m 12,9 km/h (3 Bft) 95,74 %
01.02.2019 09:22 1,1 C 0,6 C 0,0 C 96 % 987,1 hPa 0,0 l/m 0 min 0 min 29 W/m 9,7 km/h (2 Bft) 93,48 %
01.02.2019 09:24 1,2 C 0,6 C 0,0 C 96 % 987,1 hPa 0,0 l/m 0 min 0 min 29 W/m 12,9 km/h (3 Bft) 95,74 %
01.02.2019 09:26 1,2 C 0,6 C 0,0 C 96 % 987,2 hPa 0,0 l/m 0 min 0 min 34 W/m 9,7 km/h (2 Bft) 95,74 %
01.02.2019 09:28 1,2 C 0,6 C 0,0 C 96 % 987,2 hPa 0,0 l/m 0 min 0 min 38 W/m 12,9 km/h (3 Bft) 95,74 %
01.02.2019 09:30 1,2 C 0,6 C 0,0 C 96 % 987,3 hPa 0,0 l/m 0 min 0 min 41 W/m 12,9 km/h (3 Bft) 95,74 %
01.02.2019 09:32 1,2 C 0,6 C 0,6 C 96 % 987,3 hPa 0,0 l/m 0 min 0 min 44 W/m 16,1 km/h (3 Bft) 91,84 %
01.02.2019 09:34 1,2 C 0,6 C 0,6 C 96 % 987,3 hPa 0,0 l/m 0 min 0 min 42 W/m 9,7 km/h (2 Bft) 95,65 %
01.02.2019 09:36 1,2 C 0,6 C 0,6 C 96 % 987,3 hPa 0,0 l/m 0 min 0 min 42 W/m 16,1 km/h (3 Bft) 97,87 %
01.02.2019 09:38 1,2 C 0,6 C 0,6 C 96 % 987,3 hPa 0,2 l/m 0 min 0 min 42 W/m 12,9 km/h (3 Bft) 97,87 %
01.02.2019 09:40 1,2 C 0,6 C 0,6 C 96 % 987,3 hPa 0,0 l/m 0 min 0 min 41 W/m 16,1 km/h (3 Bft) 97,87 %
01.02.2019 09:42 1,3 C 0,6 C 0,6 C 96 % 987,3 hPa 0,0 l/m 0 min 0 min 36 W/m 16,1 km/h (3 Bft) 100,00 %
01.02.2019 09:44 1,3 C 0,6 C 0,6 C 96 % 987,3 hPa 0,0 l/m 0 min 0 min 32 W/m 12,9 km/h (3 Bft) 97,83 %
01.02.2019 09:46 1,3 C 0,6 C 0,6 C 96 % 987,4 hPa 0,0 l/m 0 min 0 min 30 W/m 16,1 km/h (3 Bft) 97,87 %
01.02.2019 09:48 1,3 C 0,6 C 0,0 C 96 % 987,4 hPa 0,0 l/m 0 min 0 min 30 W/m 22,5 km/h (4 Bft) 97,87 %
01.02.2019 09:50 1,3 C 0,6 C 0,0 C 96 % 987,4 hPa 0,0 l/m 0 min 0 min 30 W/m 12,9 km/h (3 Bft) 97,87 %
01.02.2019 09:52 1,3 C 0,6 C 0,0 C 96 % 987,5 hPa 0,0 l/m 0 min 0 min 26 W/m 16,1 km/h (3 Bft) 97,87 %
01.02.2019 09:54 1,3 C 0,6 C 0,0 C 96 % 987,5 hPa 0,0 l/m 0 min 0 min 25 W/m 16,1 km/h (3 Bft) 97,87 %
01.02.2019 09:56 1,3 C 0,6 C 0,0 C 96 % 987,5 hPa 0,0 l/m 0 min 0 min 22 W/m 12,9 km/h (3 Bft) 97,83 %
01.02.2019 09:58 1,3 C 0,6 C 0,0 C 96 % 987,5 hPa 0,0 l/m 0 min 0 min 23 W/m 12,9 km/h (3 Bft) 97,87 %
01.02.2019 10:00 1,3 C 0,6 C 0,0 C 96 % 987,5 hPa 0,0 l/m 0 min 0 min 21 W/m 9,7 km/h (2 Bft) 97,87 %
01.02.2019 10:02 1,3 C 0,6 C 0,0 C 96 % 987,5 hPa 0,0 l/m 0 min 0 min 20 W/m 9,7 km/h (2 Bft) 97,87 %
01.02.2019 10:04 1,3 C 0,6 C 0,0 C 96 % 987,5 hPa 0,0 l/m 0 min 0 min 21 W/m 9,7 km/h (2 Bft) 97,87 %
01.02.2019 10:06 1,3 C 0,6 C 0,0 C 96 % 987,4 hPa 0,0 l/m 0 min 0 min 22 W/m 12,9 km/h (3 Bft) 97,87 %
01.02.2019 10:08 1,3 C 0,6 C 0,0 C 96 % 987,4 hPa 0,0 l/m 0 min 0 min 23 W/m 6,4 km/h (2 Bft) 95,74 %
01.02.2019 10:10 1,3 C 0,6 C 0,0 C 96 % 987,4 hPa 0,2 l/m 0 min 0 min 24 W/m 16,1 km/h (3 Bft) 97,87 %
01.02.2019 10:12 1,3 C 0,6 C 0,0 C 96 % 987,3 hPa 0,0 l/m 0 min 0 min 26 W/m 9,7 km/h (2 Bft) 97,87 %
01.02.2019 10:14 1,3 C 1,1 C 0,6 C 96 % 987,3 hPa 0,0 l/m 0 min 0 min 30 W/m 9,7 km/h (2 Bft) 97,87 %
01.02.2019 10:16 1,3 C 1,1 C 0,6 C 96 % 987,3 hPa 0,0 l/m 0 min 0 min 36 W/m 12,9 km/h (3 Bft) 97,83 %
01.02.2019 10:18 1,3 C 1,1 C 0,6 C 96 % 987,3 hPa 0,0 l/m 0 min 0 min 41 W/m 12,9 km/h (3 Bft) 97,87 %
01.02.2019 10:20 1,3 C 1,1 C 0,6 C 96 % 987,3 hPa 0,0 l/m 0 min 0 min 45 W/m 9,7 km/h (2 Bft) 97,87 %
01.02.2019 10:22 1,3 C 1,1 C 0,6 C 96 % 987,3 hPa 0,0 l/m 0 min 0 min 43 W/m 9,7 km/h (2 Bft) 97,87 %
01.02.2019 10:24 1,3 C 1,1 C 0,6 C 96 % 987,4 hPa 0,0 l/m 0 min 0 min 39 W/m 9,7 km/h (2 Bft) 97,87 %
01.02.2019 10:26 1,3 C 1,1 C 0,6 C 96 % 987,4 hPa 0,0 l/m 0 min 0 min 35 W/m 6,4 km/h (2 Bft) 97,83 %
01.02.2019 10:28 1,3 C 1,1 C 0,6 C 96 % 987,4 hPa 0,0 l/m 0 min 0 min 36 W/m 9,7 km/h (2 Bft) 93,62 %
01.02.2019 10:30 1,3 C 1,1 C 0,6 C 96 % 987,3 hPa 0,0 l/m 0 min 0 min 40 W/m 6,4 km/h (2 Bft) 97,87 %
01.02.2019 10:32 1,3 C 1,1 C 0,6 C 96 % 987,3 hPa 0,0 l/m 0 min 0 min 44 W/m 6,4 km/h (2 Bft) 97,87 %
01.02.2019 10:34 1,4 C 1,1 C 0,6 C 96 % 987,3 hPa 0,0 l/m 0 min 0 min 50 W/m 9,7 km/h (2 Bft) 97,87 %
01.02.2019 10:36 1,4 C 1,1 C 0,6 C 96 % 987,2 hPa 0,0 l/m 0 min 0 min 58 W/m 6,4 km/h (2 Bft) 95,74 %
01.02.2019 10:38 1,4 C 1,1 C 0,6 C 96 % 987,3 hPa 0,0 l/m 0 min 0 min 65 W/m 6,4 km/h (2 Bft) 100,00 %
01.02.2019 10:40 1,4 C 1,1 C 1,1 C 96 % 987,3 hPa 0,0 l/m 0 min 0 min 75 W/m 16,1 km/h (3 Bft) 100,00 %
01.02.2019 10:42 1,4 C 1,1 C 1,1 C 96 % 987,3 hPa 0,0 l/m 0 min 0 min 71 W/m 12,9 km/h (3 Bft) 95,74 %
01.02.2019 10:44 1,4 C 1,1 C 1,1 C 96 % 987,2 hPa 0,2 l/m 0 min 0 min 74 W/m 19,3 km/h (3 Bft) 100,00 %
01.02.2019 10:46 1,5 C 1,1 C 1,1 C 96 % 987,2 hPa 0,0 l/m 0 min 0 min 76 W/m 16,1 km/h (3 Bft) 100,00 %
01.02.2019 10:48 1,5 C 1,1 C 1,1 C 96 % 987,3 hPa 0,0 l/m 0 min 0 min 77 W/m 16,1 km/h (3 Bft) 97,87 %
01.02.2019 10:50 1,5 C 1,1 C 1,1 C 96 % 987,3 hPa 0,0 l/m 0 min 0 min 80 W/m 19,3 km/h (3 Bft) 100,00 %
01.02.2019 10:52 1,6 C 1,1 C 1,1 C 96 % 987,3 hPa 0,0 l/m 0 min 0 min 79 W/m 16,1 km/h (3 Bft) 97,87 %
01.02.2019 10:54 1,6 C 1,7 C 1,1 C 96 % 987,4 hPa 0,0 l/m 0 min 0 min 80 W/m 9,7 km/h (2 Bft) 100,00 %
01.02.2019 10:56 1,6 C 1,7 C 1,1 C 96 % 987,4 hPa 0,0 l/m 0 min 0 min 83 W/m 6,4 km/h (2 Bft) 97,87 %
01.02.2019 10:58 1,6 C 1,7 C 1,1 C 96 % 987,5 hPa 0,0 l/m 0 min 0 min 81 W/m 12,9 km/h (3 Bft) 100,00 %
01.02.2019 11:00 1,6 C 1,7 C 1,1 C 96 % 987,6 hPa 0,0 l/m 0 min 0 min 81 W/m 16,1 km/h (3 Bft) 100,00 %
01.02.2019 11:02 1,7 C 1,7 C 1,1 C 96 % 987,6 hPa 0,0 l/m 0 min 0 min 88 W/m 16,1 km/h (3 Bft) 100,00 %
01.02.2019 11:04 1,7 C 1,7 C 1,1 C 96 % 987,6 hPa 0,0 l/m 0 min 0 min 92 W/m 12,9 km/h (3 Bft) 100,00 %
01.02.2019 11:06 1,7 C 1,7 C 1,1 C 96 % 987,6 hPa 0,0 l/m 0 min 0 min 91 W/m 12,9 km/h (3 Bft) 100,00 %
01.02.2019 11:08 1,7 C 1,7 C 1,7 C 96 % 987,7 hPa 0,0 l/m 0 min 0 min 93 W/m 12,9 km/h (3 Bft) 100,00 %
01.02.2019 11:10 1,7 C 1,7 C 1,7 C 96 % 987,7 hPa 0,0 l/m 0 min 0 min 94 W/m 19,3 km/h (3 Bft) 100,00 %
01.02.2019 11:12 1,8 C 1,7 C 1,7 C 96 % 987,7 hPa 0,0 l/m 0 min 0 min 92 W/m 22,5 km/h (4 Bft) 100,00 %
01.02.2019 11:14 1,8 C 1,7 C 1,7 C 96 % 987,8 hPa 0,0 l/m 0 min 0 min 86 W/m 16,1 km/h (3 Bft) 100,00 %
01.02.2019 11:16 1,8 C 1,7 C 1,7 C 96 % 987,8 hPa 0,2 l/m 0 min 0 min 86 W/m 16,1 km/h (3 Bft) 100,00 %
01.02.2019 11:18 1,8 C 1,7 C 1,7 C 96 % 987,9 hPa 0,0 l/m 0 min 0 min 96 W/m 16,1 km/h (3 Bft) 100,00 %
01.02.2019 11:20 1,9 C 1,7 C 1,7 C 96 % 987,8 hPa 0,0 l/m 0 min 0 min 102 W/m 12,9 km/h (3 Bft) 95,74 %
01.02.2019 11:22 1,9 C 2,2 C 1,7 C 96 % 987,8 hPa 0,0 l/m 0 min 0 min 104 W/m 25,7 km/h (4 Bft) 97,87 %
01.02.2019 11:24 1,9 C 2,2 C 1,7 C 96 % 987,7 hPa 0,0 l/m 0 min 0 min 106 W/m 22,5 km/h (4 Bft) 97,87 %
01.02.2019 11:26 1,9 C 2,2 C 1,7 C 96 % 987,8 hPa 0,0 l/m 0 min 0 min 109 W/m 12,9 km/h (3 Bft) 97,83 %
01.02.2019 11:28 2,0 C 2,2 C 2,2 C 96 % 987,7 hPa 0,0 l/m 0 min 0 min 135 W/m 16,1 km/h (3 Bft) 97,87 %
01.02.2019 11:30 2,1 C 2,8 C 2,2 C 96 % 987,7 hPa 0,0 l/m 0 min 0 min 153 W/m 9,7 km/h (2 Bft) 97,87 %
01.02.2019 11:32 2,1 C 2,8 C 2,2 C 96 % 987,7 hPa 0,0 l/m 2 min 0 min 172 W/m 9,7 km/h (2 Bft) 91,49 %
01.02.2019 11:34 2,2 C 3,3 C 2,8 C 96 % 987,8 hPa 0,0 l/m 2 min 0 min 219 W/m 25,7 km/h (4 Bft) 95,74 %
01.02.2019 11:36 2,2 C 3,3 C 2,8 C 96 % 987,8 hPa 0,0 l/m 2 min 0 min 240 W/m 19,3 km/h (3 Bft) 97,83 %
01.02.2019 11:38 2,3 C 3,3 C 2,8 C 96 % 987,8 hPa 0,0 l/m 2 min 0 min 179 W/m 16,1 km/h (3 Bft) 95,74 %
01.02.2019 11:40 2,3 C 3,3 C 2,8 C 96 % 987,8 hPa 0,0 l/m 2 min 0 min 174 W/m 16,1 km/h (3 Bft) 95,74 %
01.02.2019 11:42 2,4 C 3,3 C 2,8 C 96 % 987,8 hPa 0,0 l/m 0 min 0 min 173 W/m 16,1 km/h (3 Bft) 95,74 %
01.02.2019 11:44 2,4 C 2,8 C 2,2 C 96 % 987,8 hPa 0,2 l/m 0 min 0 min 132 W/m 19,3 km/h (3 Bft) 91,49 %
01.02.2019 11:46 2,5 C 3,3 C 2,2 C 96 % 987,8 hPa 0,0 l/m 0 min 0 min 156 W/m 16,1 km/h (3 Bft) 95,74 %
01.02.2019 11:48 2,5 C 4,4 C 2,2 C 96 % 987,8 hPa 0,0 l/m 2 min 0 min 277 W/m 19,3 km/h (3 Bft) 95,65 %
01.02.2019 11:50 2,6 C 4,4 C 2,2 C 96 % 987,7 hPa 0,0 l/m 2 min 0 min 238 W/m 16,1 km/h (3 Bft) 93,62 %
01.02.2019 11:52 2,7 C 3,9 C 2,2 C 96 % 987,8 hPa 0,0 l/m 2 min 0 min 205 W/m 25,7 km/h (4 Bft) 95,74 %
01.02.2019 11:54 2,7 C 3,3 C 2,2 C 95 % 987,8 hPa 0,0 l/m 0 min 0 min 112 W/m 22,5 km/h (4 Bft) 95,74 %
01.02.2019 11:56 2,7 C 3,3 C 2,2 C 95 % 987,8 hPa 0,0 l/m 0 min 0 min 105 W/m 16,1 km/h (3 Bft) 95,74 %
01.02.2019 11:58 2,8 C 2,8 C 2,2 C 95 % 987,8 hPa 0,0 l/m 0 min 0 min 120 W/m 22,5 km/h (4 Bft) 95,74 %
01.02.2019 12:00 2,8 C 2,8 C 2,2 C 95 % 987,8 hPa 0,0 l/m 0 min 0 min 130 W/m 19,3 km/h (3 Bft) 95,65 %
01.02.2019 12:02 2,8 C 3,3 C 2,8 C 95 % 987,8 hPa 0,0 l/m 0 min 0 min 135 W/m 19,3 km/h (3 Bft) 95,74 %
01.02.2019 12:04 2,8 C 3,3 C 2,8 C 95 % 987,8 hPa 0,0 l/m 0 min 0 min 138 W/m 22,5 km/h (4 Bft) 93,62 %
01.02.2019 12:08 2,9 C 3,3 C 2,8 C 95 % 987,8 hPa 0,0 l/m 0 min 0 min 142 W/m 16,1 km/h (3 Bft) 94,68 %
01.02.2019 12:10 2,9 C 3,3 C 2,8 C 95 % 987,8 hPa 0,0 l/m 0 min 0 min 144 W/m 12,9 km/h (3 Bft) 97,87 %
01.02.2019 12:12 3,0 C 3,3 C 2,8 C 95 % 987,8 hPa 0,0 l/m 0 min 0 min 140 W/m 16,1 km/h (3 Bft) 97,83 %
01.02.2019 12:14 3,0 C 3,3 C 2,8 C 94 % 987,7 hPa 0,0 l/m 0 min 0 min 139 W/m 12,9 km/h (3 Bft) 97,87 %
01.02.2019 12:16 3,1 C 3,3 C 3,3 C 94 % 987,7 hPa 0,0 l/m 0 min 0 min 137 W/m 12,9 km/h (3 Bft) 97,87 %
01.02.2019 12:18 3,1 C 3,3 C 2,8 C 94 % 987,7 hPa 0,0 l/m 0 min 0 min 133 W/m 9,7 km/h (2 Bft) 97,87 %
01.02.2019 12:20 3,1 C 3,3 C 2,8 C 94 % 987,7 hPa 0,0 l/m 0 min 0 min 130 W/m 12,9 km/h (3 Bft) 97,87 %
01.02.2019 12:22 3,2 C 3,3 C 2,8 C 94 % 987,7 hPa 0,0 l/m 0 min 0 min 134 W/m 16,1 km/h (3 Bft) 95,74 %
01.02.2019 12:24 3,2 C 3,3 C 2,8 C 94 % 987,7 hPa 0,0 l/m 0 min 0 min 136 W/m 16,1 km/h (3 Bft) 97,83 %
01.02.2019 12:26 3,2 C 3,3 C 2,8 C 94 % 987,8 hPa 0,0 l/m 0 min 0 min 138 W/m 16,1 km/h (3 Bft) 97,87 %
01.02.2019 12:28 3,2 C 3,3 C 2,8 C 94 % 987,8 hPa 0,0 l/m 0 min 0 min 141 W/m 16,1 km/h (3 Bft) 97,87 %
01.02.2019 12:30 3,2 C 3,3 C 3,3 C 94 % 987,8 hPa 0,0 l/m 0 min 0 min 145 W/m 9,7 km/h (2 Bft) 97,87 %
01.02.2019 12:32 3,3 C 3,3 C 3,3 C 94 % 987,8 hPa 0,0 l/m 0 min 0 min 150 W/m 16,1 km/h (3 Bft) 97,87 %
01.02.2019 12:34 3,3 C 3,3 C 3,3 C 93 % 987,7 hPa 0,0 l/m 0 min 0 min 158 W/m 22,5 km/h (4 Bft) 93,62 %
01.02.2019 12:36 3,3 C 3,3 C 3,3 C 93 % 987,7 hPa 0,2 l/m 0 min 0 min 172 W/m 25,7 km/h (4 Bft) 93,48 %
01.02.2019 12:38 3,3 C 3,3 C 3,3 C 93 % 987,7 hPa 0,0 l/m 2 min 0 min 186 W/m 29,0 km/h (5 Bft) 97,87 %
01.02.2019 12:40 3,4 C 3,9 C 3,3 C 93 % 987,7 hPa 0,0 l/m 2 min 0 min 192 W/m 16,1 km/h (3 Bft) 95,74 %
01.02.2019 12:42 3,4 C 3,9 C 3,3 C 93 % 987,7 hPa 0,0 l/m 2 min 0 min 192 W/m 16,1 km/h (3 Bft) 100,00 %
01.02.2019 12:44 3,5 C 3,9 C 3,3 C 93 % 987,7 hPa 0,0 l/m 2 min 0 min 190 W/m 19,3 km/h (3 Bft) 97,87 %
01.02.2019 12:46 3,5 C 3,9 C 3,9 C 93 % 987,7 hPa 0,0 l/m 2 min 0 min 192 W/m 9,7 km/h (2 Bft) 95,74 %
01.02.2019 12:48 3,6 C 3,9 C 3,9 C 93 % 987,7 hPa 0,0 l/m 2 min 0 min 197 W/m 16,1 km/h (3 Bft) 97,83 %
01.02.2019 12:50 3,6 C 3,9 C 3,9 C 92 % 987,7 hPa 0,0 l/m 2 min 0 min 196 W/m 29,0 km/h (5 Bft) 97,87 %
01.02.2019 12:52 3,6 C 5,0 C 4,4 C 92 % 987,7 hPa 0,0 l/m 2 min 0 min 215 W/m 12,9 km/h (3 Bft) 95,74 %
01.02.2019 12:54 3,7 C 5,0 C 4,4 C 92 % 987,7 hPa 0,0 l/m 2 min 0 min 243 W/m 12,9 km/h (3 Bft) 97,87 %
01.02.2019 12:56 3,7 C 4,4 C 4,4 C 92 % 987,7 hPa 0,0 l/m 2 min 0 min 191 W/m 12,9 km/h (3 Bft) 95,74 %
01.02.2019 12:58 3,8 C 4,4 C 4,4 C 92 % 987,7 hPa 0,0 l/m 2 min 0 min 203 W/m 16,1 km/h (3 Bft) 97,87 %
01.02.2019 13:00 3,8 C 4,4 C 3,9 C 92 % 987,7 hPa 0,0 l/m 2 min 0 min 200 W/m 22,5 km/h (4 Bft) 97,83 %
01.02.2019 13:02 3,9 C 4,4 C 3,9 C 92 % 987,8 hPa 0,0 l/m 2 min 0 min 199 W/m 12,9 km/h (3 Bft) 97,87 %
01.02.2019 13:04 3,9 C 4,4 C 3,9 C 92 % 987,8 hPa 0,0 l/m 2 min 0 min 217 W/m 16,1 km/h (3 Bft) 97,87 %
01.02.2019 13:06 3,9 C 4,4 C 4,4 C 92 % 987,7 hPa 0,0 l/m 2 min 0 min 236 W/m 16,1 km/h (3 Bft) 97,87 %
01.02.2019 13:08 3,9 C 5,0 C 4,4 C 92 % 987,7 hPa 0,0 l/m 2 min 0 min 263 W/m 12,9 km/h (3 Bft) 95,74 %
01.02.2019 13:10 4,0 C 5,0 C 4,4 C 91 % 987,7 hPa 0,0 l/m 2 min 0 min 243 W/m 22,5 km/h (4 Bft) 97,83 %
01.02.2019 13:12 4,1 C 5,0 C 4,4 C 91 % 987,7 hPa 0,0 l/m 2 min 0 min 240 W/m 16,1 km/h (3 Bft) 97,87 %
01.02.2019 13:14 4,1 C 4,4 C 4,4 C 91 % 987,7 hPa 0,0 l/m 2 min 0 min 241 W/m 19,3 km/h (3 Bft) 97,87 %
01.02.2019 13:16 4,1 C 5,0 C 4,4 C 91 % 987,7 hPa 0,0 l/m 2 min 0 min 256 W/m 12,9 km/h (3 Bft) 97,87 %
01.02.2019 13:18 4,2 C 5,0 C 4,4 C 91 % 987,7 hPa 0,0 l/m 2 min 0 min 270 W/m 22,5 km/h (4 Bft) 97,87 %
01.02.2019 13:20 4,2 C 5,0 C 4,4 C 91 % 987,7 hPa 0,0 l/m 2 min 0 min 246 W/m 19,3 km/h (3 Bft) 97,87 %
01.02.2019 13:22 4,2 C 5,0 C 4,4 C 91 % 987,7 hPa 0,0 l/m 2 min 0 min 213 W/m 9,7 km/h (2 Bft) 97,83 %
01.02.2019 13:24 4,2 C 4,4 C 4,4 C 90 % 987,7 hPa 0,0 l/m 2 min 0 min 195 W/m 9,7 km/h (2 Bft) 97,87 %
01.02.2019 13:26 4,2 C 4,4 C 4,4 C 90 % 987,7 hPa 0,0 l/m 2 min 0 min 183 W/m 12,9 km/h (3 Bft) 97,87 %
01.02.2019 13:28 4,3 C 4,4 C 3,9 C 90 % 987,7 hPa 0,0 l/m 0 min 0 min 175 W/m 16,1 km/h (3 Bft) 97,87 %
01.02.2019 13:30 4,3 C 4,4 C 3,9 C 90 % 987,7 hPa 0,0 l/m 0 min 0 min 178 W/m 19,3 km/h (3 Bft) 100,00 %
01.02.2019 13:32 4,3 C 4,4 C 3,9 C 90 % 987,7 hPa 0,0 l/m 0 min 0 min 176 W/m 12,9 km/h (3 Bft) 95,74 %
01.02.2019 13:34 4,3 C 4,4 C 3,9 C 90 % 987,7 hPa 0,0 l/m 0 min 0 min 165 W/m 16,1 km/h (3 Bft) 100,00 %
01.02.2019 13:36 4,3 C 4,4 C 3,9 C 90 % 987,7 hPa 0,0 l/m 0 min 0 min 164 W/m 16,1 km/h (3 Bft) 100,00 %
01.02.2019 13:38 4,3 C 4,4 C 3,9 C 90 % 987,7 hPa 0,0 l/m 0 min 0 min 160 W/m 9,7 km/h (2 Bft) 97,87 %
01.02.2019 13:40 4,3 C 3,9 C 3,9 C 89 % 987,7 hPa 0,0 l/m 0 min 0 min 148 W/m 19,3 km/h (3 Bft) 100,00 %
01.02.2019 13:42 4,3 C 3,9 C 3,9 C 90 % 987,7 hPa 0,0 l/m 0 min 0 min 134 W/m 16,1 km/h (3 Bft) 100,00 %
01.02.2019 13:44 4,3 C 3,9 C 3,9 C 89 % 987,6 hPa 0,0 l/m 0 min 0 min 128 W/m 22,5 km/h (4 Bft) 100,00 %
01.02.2019 13:46 4,3 C 3,9 C 3,9 C 89 % 987,7 hPa 0,0 l/m 0 min 0 min 128 W/m 16,1 km/h (3 Bft) 100,00 %
01.02.2019 13:48 4,3 C 4,4 C 3,9 C 89 % 987,7 hPa 0,0 l/m 0 min 0 min 144 W/m 22,5 km/h (4 Bft) 97,83 %
01.02.2019 13:50 4,3 C 4,4 C 3,9 C 89 % 987,6 hPa 0,0 l/m 0 min 0 min 141 W/m 12,9 km/h (3 Bft) 97,87 %
01.02.2019 13:52 4,3 C 4,4 C 3,9 C 89 % 987,6 hPa 0,0 l/m 0 min 0 min 143 W/m 16,1 km/h (3 Bft) 95,74 %
01.02.2019 13:54 4,3 C 4,4 C 3,9 C 89 % 987,7 hPa 0,0 l/m 0 min 0 min 140 W/m 12,9 km/h (3 Bft) 97,87 %
01.02.2019 13:56 4,3 C 4,4 C 3,9 C 89 % 987,6 hPa 0,0 l/m 0 min 0 min 136 W/m 12,9 km/h (3 Bft) 95,74 %
01.02.2019 13:58 4,3 C 5,0 C 3,9 C 89 % 987,6 hPa 0,0 l/m 0 min 0 min 135 W/m 16,1 km/h (3 Bft) 97,87 %
01.02.2019 14:00 4,3 C 5,0 C 3,9 C 89 % 987,6 hPa 0,0 l/m 0 min 0 min 147 W/m 16,1 km/h (3 Bft) 95,65 %
01.02.2019 14:02 4,3 C 5,0 C 3,9 C 89 % 987,7 hPa 0,0 l/m 0 min 0 min 169 W/m 19,3 km/h (3 Bft) 97,87 %
01.02.2019 14:04 4,3 C 5,0 C 3,9 C 89 % 987,7 hPa 0,0 l/m 2 min 0 min 196 W/m 19,3 km/h (3 Bft) 97,87 %
01.02.2019 14:06 4,3 C 5,6 C 4,4 C 89 % 987,6 hPa 0,0 l/m 2 min 0 min 214 W/m 16,1 km/h (3 Bft) 98,31 %
01.02.2019 14:08 4,4 C 5,6 C 4,4 C 89 % 987,6 hPa 0,0 l/m 2 min 0 min 207 W/m 12,9 km/h (3 Bft) 97,87 %
01.02.2019 14:10 4,4 C 5,6 C 4,4 C 89 % 987,6 hPa 0,0 l/m 2 min 0 min 199 W/m 19,3 km/h (3 Bft) 97,14 %
01.02.2019 14:12 4,4 C 5,6 C 4,4 C 89 % 987,6 hPa 0,0 l/m 2 min 0 min 195 W/m 19,3 km/h (3 Bft) 97,83 %
01.02.2019 14:14 4,5 C 5,6 C 4,4 C 89 % 987,6 hPa 0,0 l/m 2 min 0 min 187 W/m 16,1 km/h (3 Bft) 95,74 %
01.02.2019 14:16 4,6 C 5,6 C 4,4 C 89 % 987,6 hPa 0,0 l/m 2 min 0 min 177 W/m 19,3 km/h (3 Bft) 97,87 %
01.02.2019 14:18 4,6 C 5,6 C 4,4 C 89 % 987,6 hPa 0,0 l/m 2 min 0 min 166 W/m 19,3 km/h (3 Bft) 95,74 %
01.02.2019 14:20 4,6 C 5,6 C 4,4 C 89 % 987,6 hPa 0,0 l/m 2 min 0 min 166 W/m 19,3 km/h (3 Bft) 97,87 %
01.02.2019 14:22 4,7 C 5,6 C 4,4 C 89 % 987,5 hPa 0,0 l/m 2 min 0 min 167 W/m 19,3 km/h (3 Bft) 95,74 %
01.02.2019 14:24 4,7 C 5,6 C 4,4 C 89 % 987,5 hPa 0,0 l/m 0 min 0 min 152 W/m 19,3 km/h (3 Bft) 97,83 %
01.02.2019 14:26 4,7 C 5,6 C 4,4 C 89 % 987,5 hPa 0,0 l/m 2 min 0 min 159 W/m 12,9 km/h (3 Bft) 97,87 %
01.02.2019 14:28 4,7 C 5,6 C 4,4 C 89 % 987,5 hPa 0,0 l/m 2 min 0 min 173 W/m 22,5 km/h (4 Bft) 97,87 %
01.02.2019 14:30 4,8 C 5,6 C 4,4 C 89 % 987,5 hPa 0,0 l/m 2 min 0 min 166 W/m 16,1 km/h (3 Bft) 100,00 %
01.02.2019 14:32 4,8 C 5,6 C 4,4 C 89 % 987,6 hPa 0,0 l/m 2 min 0 min 163 W/m 22,5 km/h (4 Bft) 100,00 %
01.02.2019 14:34 4,8 C 5,6 C 4,4 C 89 % 987,6 hPa 0,0 l/m 2 min 0 min 170 W/m 22,5 km/h (4 Bft) 100,00 %
01.02.2019 14:36 4,9 C 6,1 C 4,4 C 89 % 987,5 hPa 0,0 l/m 2 min 0 min 161 W/m 19,3 km/h (3 Bft) 98,28 %
01.02.2019 14:38 4,9 C 5,6 C 4,4 C 89 % 987,5 hPa 0,0 l/m 0 min 0 min 146 W/m 22,5 km/h (4 Bft) 97,87 %
01.02.2019 14:40 4,9 C 5,6 C 4,4 C 89 % 987,6 hPa 0,0 l/m 0 min 0 min 139 W/m 16,1 km/h (3 Bft) 100,00 %
01.02.2019 14:42 5,0 C 5,6 C 4,4 C 89 % 987,7 hPa 0,0 l/m 0 min 0 min 123 W/m 12,9 km/h (3 Bft) 97,87 %
01.02.2019 14:44 5,0 C 5,6 C 4,4 C 88 % 987,6 hPa 0,0 l/m 0 min 0 min 122 W/m 19,3 km/h (3 Bft) 100,00 %
01.02.2019 14:46 5,1 C 5,6 C 4,4 C 88 % 987,7 hPa 0,0 l/m 0 min 0 min 128 W/m 22,5 km/h (4 Bft) 97,83 %
01.02.2019 14:48 5,1 C 5,6 C 4,4 C 88 % 987,7 hPa 0,0 l/m 0 min 0 min 133 W/m 16,1 km/h (3 Bft) 97,87 %
01.02.2019 14:50 5,1 C 5,6 C 4,4 C 88 % 987,6 hPa 0,0 l/m 0 min 0 min 124 W/m 19,3 km/h (3 Bft) 100,00 %
01.02.2019 14:52 5,1 C 5,6 C 4,4 C 88 % 987,7 hPa 0,0 l/m 0 min 0 min 117 W/m 12,9 km/h (3 Bft) 97,87 %
01.02.2019 14:54 5,1 C 5,6 C 4,4 C 88 % 987,6 hPa 0,0 l/m 0 min 0 min 124 W/m 12,9 km/h (3 Bft) 100,00 %
01.02.2019 14:56 5,1 C 5,6 C 4,4 C 88 % 987,7 hPa 0,0 l/m 0 min 0 min 127 W/m 12,9 km/h (3 Bft) 95,74 %
01.02.2019 14:58 5,1 C 5,6 C 4,4 C 88 % 987,6 hPa 0,0 l/m 0 min 0 min 122 W/m 16,1 km/h (3 Bft) 97,83 %
01.02.2019 15:00 5,1 C 5,6 C 4,4 C 88 % 987,7 hPa 0,0 l/m 0 min 0 min 122 W/m 16,1 km/h (3 Bft) 97,87 %
01.02.2019 15:02 5,1 C 5,6 C 4,4 C 88 % 987,7 hPa 0,0 l/m 0 min 0 min 123 W/m 9,7 km/h (2 Bft) 97,87 %
01.02.2019 15:04 5,2 C 5,6 C 4,4 C 88 % 987,7 hPa 0,0 l/m 0 min 0 min 128 W/m 12,9 km/h (3 Bft) 97,87 %
01.02.2019 15:06 5,2 C 5,6 C 4,4 C 88 % 987,7 hPa 0,0 l/m 0 min 0 min 124 W/m 9,7 km/h (2 Bft) 98,28 %
01.02.2019 15:08 5,2 C 5,6 C 4,4 C 88 % 987,7 hPa 0,0 l/m 0 min 0 min 116 W/m 12,9 km/h (3 Bft) 97,87 %
01.02.2019 15:10 5,2 C 5,6 C 4,4 C 88 % 987,7 hPa 0,0 l/m 0 min 0 min 111 W/m 19,3 km/h (3 Bft) 97,37 %
01.02.2019 15:12 5,2 C 5,6 C 4,4 C 88 % 987,7 hPa 0,0 l/m 0 min 0 min 112 W/m 12,9 km/h (3 Bft) 97,87 %
01.02.2019 15:14 5,2 C 5,6 C 4,4 C 88 % 987,7 hPa 0,0 l/m 0 min 0 min 113 W/m 16,1 km/h (3 Bft) 97,87 %
01.02.2019 15:16 5,2 C 5,6 C 4,4 C 88 % 987,7 hPa 0,0 l/m 0 min 0 min 108 W/m 12,9 km/h (3 Bft) 97,87 %
01.02.2019 15:18 5,2 C 5,0 C 4,4 C 88 % 987,6 hPa 0,0 l/m 0 min 0 min 103 W/m 16,1 km/h (3 Bft) 97,87 %
01.02.2019 15:20 5,2 C 5,6 C 4,4 C 87 % 987,7 hPa 0,0 l/m 0 min 0 min 99 W/m 16,1 km/h (3 Bft) 95,74 %
01.02.2019 15:22 5,2 C 5,6 C 4,4 C 87 % 987,7 hPa 0,0 l/m 0 min 0 min 98 W/m 16,1 km/h (3 Bft) 97,83 %
01.02.2019 15:24 5,2 C 5,6 C 4,4 C 87 % 987,7 hPa 0,0 l/m 0 min 0 min 101 W/m 12,9 km/h (3 Bft) 97,87 %
01.02.2019 15:26 5,2 C 5,6 C 4,4 C 87 % 987,7 hPa 0,0 l/m 0 min 0 min 107 W/m 12,9 km/h (3 Bft) 95,74 %
01.02.2019 15:28 5,2 C 5,6 C 4,4 C 87 % 987,7 hPa 0,0 l/m 0 min 0 min 113 W/m 12,9 km/h (3 Bft) 95,74 %
01.02.2019 15:30 5,2 C 5,6 C 4,4 C 87 % 987,7 hPa 0,0 l/m 2 min 0 min 117 W/m 12,9 km/h (3 Bft) 95,74 %
01.02.2019 15:32 5,2 C 5,6 C 4,4 C 87 % 987,7 hPa 0,0 l/m 2 min 0 min 126 W/m 9,7 km/h (2 Bft) 95,65 %
01.02.2019 15:34 5,2 C 5,6 C 4,4 C 87 % 987,7 hPa 0,0 l/m 2 min 0 min 120 W/m 12,9 km/h (3 Bft) 93,62 %
01.02.2019 15:36 5,2 C 5,6 C 4,4 C 87 % 987,6 hPa 0,0 l/m 0 min 0 min 105 W/m 12,9 km/h (3 Bft) 96,61 %
01.02.2019 15:38 5,3 C 5,6 C 4,4 C 87 % 987,6 hPa 0,0 l/m 0 min 0 min 90 W/m 16,1 km/h (3 Bft) 93,62 %
01.02.2019 15:40 5,3 C 5,6 C 4,4 C 87 % 987,6 hPa 0,0 l/m 0 min 0 min 85 W/m 12,9 km/h (3 Bft) 94,29 %
01.02.2019 15:42 5,3 C 5,6 C 4,4 C 87 % 987,6 hPa 0,0 l/m 0 min 0 min 83 W/m 6,4 km/h (2 Bft) 95,74 %
01.02.2019 15:44 5,3 C 5,6 C 3,9 C 87 % 987,7 hPa 0,0 l/m 0 min 0 min 84 W/m 6,4 km/h (2 Bft) 95,65 %
01.02.2019 15:46 5,3 C 5,6 C 3,9 C 87 % 987,6 hPa 0,0 l/m 0 min 0 min 90 W/m 9,7 km/h (2 Bft) 93,62 %
01.02.2019 15:48 5,3 C 5,6 C 3,9 C 87 % 987,7 hPa 0,0 l/m 0 min 0 min 96 W/m 6,4 km/h (2 Bft) 95,74 %
01.02.2019 15:50 5,2 C 5,6 C 3,9 C 87 % 987,7 hPa 0,0 l/m 0 min 0 min 91 W/m 6,4 km/h (2 Bft) 93,62 %
01.02.2019 15:52 5,2 C 5,0 C 3,9 C 87 % 987,7 hPa 0,0 l/m 0 min 0 min 83 W/m 6,4 km/h (2 Bft) 93,62 %
01.02.2019 15:54 5,2 C 5,0 C 3,9 C 87 % 987,8 hPa 0,0 l/m 0 min 0 min 73 W/m 6,4 km/h (2 Bft) 93,62 %
01.02.2019 15:56 5,2 C 5,0 C 3,9 C 88 % 987,8 hPa 0,0 l/m 0 min 0 min 66 W/m 9,7 km/h (2 Bft) 97,83 %
01.02.2019 15:58 5,2 C 5,0 C 3,9 C 88 % 987,7 hPa 0,0 l/m 0 min 0 min 62 W/m 6,4 km/h (2 Bft) 100,00 %
01.02.2019 16:00 5,2 C 5,0 C 3,9 C 88 % 987,7 hPa 0,0 l/m 0 min 0 min 60 W/m 6,4 km/h (2 Bft) 97,87 %
01.02.2019 16:02 5,2 C 5,0 C 3,9 C 88 % 987,8 hPa 0,0 l/m 0 min 0 min 61 W/m 6,4 km/h (2 Bft) 93,62 %
01.02.2019 16:04 5,2 C 5,0 C 3,9 C 88 % 987,7 hPa 0,0 l/m 0 min 0 min 62 W/m 6,4 km/h (2 Bft) 97,87 %
01.02.2019 16:06 5,2 C 5,0 C 3,9 C 88 % 987,6 hPa 0,0 l/m 0 min 0 min 59 W/m 9,7 km/h (2 Bft) 98,28 %
01.02.2019 16:08 5,2 C 5,0 C 3,9 C 88 % 987,6 hPa 0,0 l/m 0 min 0 min 55 W/m 6,4 km/h (2 Bft) 97,87 %
01.02.2019 16:10 5,2 C 5,0 C 3,9 C 88 % 987,6 hPa 0,0 l/m 0 min 0 min 53 W/m 6,4 km/h (2 Bft) 97,14 %
01.02.2019 16:12 5,2 C 5,0 C 3,3 C 88 % 987,7 hPa 0,0 l/m 0 min 0 min 51 W/m 6,4 km/h (2 Bft) 97,87 %
01.02.2019 16:14 5,2 C 5,0 C 3,3 C 88 % 987,7 hPa 0,0 l/m 0 min 0 min 52 W/m 9,7 km/h (2 Bft) 91,49 %
01.02.2019 16:16 5,1 C 5,0 C 3,3 C 88 % 987,8 hPa 0,0 l/m 0 min 0 min 50 W/m 6,4 km/h (2 Bft) 97,87 %
01.02.2019 16:18 5,1 C 5,0 C 3,3 C 88 % 987,7 hPa 0,0 l/m 0 min 0 min 49 W/m 6,4 km/h (2 Bft) 95,74 %
01.02.2019 16:20 5,1 C 5,0 C 3,3 C 88 % 987,7 hPa 0,0 l/m 0 min 0 min 49 W/m 9,7 km/h (2 Bft) 97,83 %
01.02.2019 16:22 5,1 C 5,0 C 3,3 C 88 % 987,7 hPa 0,0 l/m 0 min 0 min 47 W/m 6,4 km/h (2 Bft) 95,74 %
01.02.2019 16:24 5,1 C 5,0 C 3,3 C 88 % 987,6 hPa 0,0 l/m 0 min 0 min 45 W/m 6,4 km/h (2 Bft) 97,87 %
01.02.2019 16:26 5,1 C 4,4 C 3,3 C 88 % 987,6 hPa 0,0 l/m 0 min 0 min 38 W/m 6,4 km/h (2 Bft) 97,87 %
01.02.2019 16:28 5,1 C 4,4 C 3,3 C 88 % 987,7 hPa 0,0 l/m 0 min 0 min 33 W/m 6,4 km/h (2 Bft) 97,87 %
01.02.2019 16:30 5,1 C 4,4 C 3,3 C 88 % 987,7 hPa 0,0 l/m 0 min 0 min 32 W/m 6,4 km/h (2 Bft) 97,87 %
01.02.2019 16:32 5,0 C 4,4 C 3,3 C 88 % 987,8 hPa 0,0 l/m 0 min 0 min 30 W/m 6,4 km/h (2 Bft) 95,65 %
01.02.2019 16:34 4,9 C 4,4 C 3,3 C 88 % 987,8 hPa 0,0 l/m 0 min 0 min 30 W/m 9,7 km/h (2 Bft) 93,62 %
01.02.2019 16:36 4,9 C 4,4 C 3,3 C 88 % 987,8 hPa 0,0 l/m 0 min 0 min 30 W/m 6,4 km/h (2 Bft) 98,31 %
01.02.2019 16:38 4,9 C 4,4 C 3,3 C 89 % 987,7 hPa 0,0 l/m 0 min 0 min 30 W/m 6,4 km/h (2 Bft) 97,14 %
01.02.2019 16:40 4,9 C 4,4 C 3,3 C 89 % 987,8 hPa 0,0 l/m 0 min 0 min 32 W/m 6,4 km/h (2 Bft) 97,87 %
01.02.2019 16:42 4,9 C 4,4 C 3,3 C 89 % 987,8 hPa 0,0 l/m 0 min 0 min 32 W/m 9,7 km/h (2 Bft) 97,83 %
01.02.2019 16:44 4,8 C 4,4 C 3,3 C 89 % 987,8 hPa 0,0 l/m 0 min 0 min 32 W/m 6,4 km/h (2 Bft) 97,87 %
01.02.2019 16:46 4,8 C 4,4 C 3,3 C 89 % 987,9 hPa 0,0 l/m 0 min 0 min 28 W/m 6,4 km/h (2 Bft) 97,87 %
01.02.2019 16:48 4,8 C 4,4 C 3,3 C 89 % 987,9 hPa 0,0 l/m 0 min 0 min 27 W/m 3,2 km/h (1 Bft) 97,87 %
01.02.2019 16:50 4,8 C 4,4 C 3,3 C 89 % 987,9 hPa 0,0 l/m 0 min 0 min 25 W/m 6,4 km/h (2 Bft) 95,74 %
01.02.2019 16:52 4,8 C 4,4 C 3,3 C 89 % 987,9 hPa 0,0 l/m 0 min 0 min 23 W/m 6,4 km/h (2 Bft) 97,87 %
01.02.2019 16:54 4,8 C 4,4 C 3,3 C 89 % 987,9 hPa 0,0 l/m 0 min 0 min 21 W/m 6,4 km/h (2 Bft) 97,83 %
01.02.2019 16:56 4,8 C 4,4 C 3,3 C 89 % 987,9 hPa 0,0 l/m 0 min 0 min 21 W/m 6,4 km/h (2 Bft) 100,00 %
01.02.2019 16:58 4,8 C 4,4 C 3,3 C 89 % 987,9 hPa 0,0 l/m 0 min 0 min 19 W/m 6,4 km/h (2 Bft) 100,00 %
01.02.2019 17:00 4,8 C 4,4 C 3,3 C 89 % 987,9 hPa 0,0 l/m 0 min 0 min 17 W/m 6,4 km/h (2 Bft) 100,00 %
01.02.2019 17:02 4,8 C 4,4 C 3,3 C 89 % 987,9 hPa 0,0 l/m 0 min 0 min 16 W/m 6,4 km/h (2 Bft) 97,87 %
01.02.2019 17:04 4,8 C 4,4 C 3,3 C 89 % 987,8 hPa 0,0 l/m 0 min 0 min 13 W/m 6,4 km/h (2 Bft) 100,00 %
01.02.2019 17:06 4,7 C 3,9 C 2,8 C 89 % 987,9 hPa 0,0 l/m 0 min 0 min 12 W/m 3,2 km/h (1 Bft) 98,28 %
01.02.2019 17:08 4,7 C 3,9 C 2,8 C 89 % 987,9 hPa 0,0 l/m 0 min 0 min 11 W/m 3,2 km/h (1 Bft) 100,00 %
01.02.2019 17:10 4,7 C 3,9 C 2,8 C 89 % 987,8 hPa 0,0 l/m 0 min 0 min 11 W/m 3,2 km/h (1 Bft) 100,00 %
01.02.2019 17:12 4,7 C 3,9 C 2,8 C 89 % 987,8 hPa 0,0 l/m 0 min 0 min 9 W/m 3,2 km/h (1 Bft) 100,00 %
01.02.2019 17:14 4,7 C 3,9 C 2,2 C 89 % 987,8 hPa 0,0 l/m 0 min 0 min 8 W/m 6,4 km/h (2 Bft) 97,87 %
01.02.2019 17:16 4,7 C 3,3 C 2,2 C 89 % 987,8 hPa 0,0 l/m 0 min 0 min 7 W/m 6,4 km/h (2 Bft) 100,00 %
01.02.2019 17:18 4,7 C 3,3 C 2,2 C 89 % 987,9 hPa 0,0 l/m 0 min 0 min 6 W/m 6,4 km/h (2 Bft) 100,00 %
01.02.2019 17:20 4,7 C 3,3 C 2,2 C 89 % 987,9 hPa 0,0 l/m 0 min 0 min 5 W/m 6,4 km/h (2 Bft) 100,00 %
01.02.2019 17:22 4,6 C 3,3 C 2,2 C 89 % 987,8 hPa 0,0 l/m 0 min 0 min 1 W/m 6,4 km/h (2 Bft) 97,96 %
01.02.2019 17:24 4,6 C 3,3 C 2,2 C 89 % 987,8 hPa 0,0 l/m 0 min 0 min 0 W/m 6,4 km/h (2 Bft) 97,92 %
01.02.2019 17:26 4,6 C 3,3 C 2,2 C 89 % 987,7 hPa 0,0 l/m 0 min 0 min 0 W/m 3,2 km/h (1 Bft) 100,00 %
01.02.2019 17:28 4,6 C 3,3 C 2,2 C 89 % 987,8 hPa 0,0 l/m 0 min 0 min 0 W/m 3,2 km/h (1 Bft) 100,00 %
01.02.2019 17:30 4,5 C 2,8 C 2,2 C 89 % 987,7 hPa 0,0 l/m 0 min 0 min 0 W/m 3,2 km/h (1 Bft) 97,83 %
01.02.2019 17:32 4,5 C 2,8 C 2,2 C 89 % 987,7 hPa 0,0 l/m 0 min 0 min 0 W/m 3,2 km/h (1 Bft) 97,87 %
01.02.2019 17:38 4,4 C 3,9 C 2,8 C 89 % 987,7 hPa 0,0 l/m 0 min 0 min 0 W/m 3,2 km/h (1 Bft) 97,37 %
01.02.2019 17:40 4,3 C 3,9 C 2,8 C 89 % 987,8 hPa 0,0 l/m 0 min 0 min 0 W/m 6,4 km/h (2 Bft) 96,97 %
01.02.2019 17:42 4,3 C 3,9 C 2,8 C 89 % 987,7 hPa 0,0 l/m 0 min 0 min 0 W/m 6,4 km/h (2 Bft) 100,00 %
01.02.2019 17:44 4,3 C 3,9 C 2,8 C 89 % 987,8 hPa 0,0 l/m 0 min 0 min 0 W/m 6,4 km/h (2 Bft) 96,55 %
01.02.2019 17:46 4,3 C 3,9 C 2,8 C 90 % 987,8 hPa 0,0 l/m 0 min 0 min 0 W/m 9,7 km/h (2 Bft) 97,87 %
01.02.2019 17:48 4,3 C 3,9 C 2,8 C 90 % 987,7 hPa 0,0 l/m 0 min 0 min 0 W/m 6,4 km/h (2 Bft) 97,87 %
01.02.2019 17:50 4,3 C 3,9 C 2,8 C 90 % 987,8 hPa 0,0 l/m 0 min 0 min 0 W/m 6,4 km/h (2 Bft) 97,87 %
01.02.2019 17:52 4,2 C 3,9 C 2,8 C 90 % 987,9 hPa 0,0 l/m 0 min 0 min 0 W/m 9,7 km/h (2 Bft) 97,83 %
01.02.2019 17:54 4,2 C 3,9 C 2,8 C 90 % 987,9 hPa 0,0 l/m 0 min 0 min 0 W/m 6,4 km/h (2 Bft) 97,87 %
01.02.2019 17:56 4,2 C 3,9 C 2,8 C 90 % 987,9 hPa 0,0 l/m 0 min 0 min 0 W/m 12,9 km/h (3 Bft) 97,87 %
01.02.2019 17:58 4,2 C 3,9 C 2,8 C 90 % 987,9 hPa 0,0 l/m 0 min 0 min 0 W/m 6,4 km/h (2 Bft) 97,87 %
01.02.2019 18:00 4,2 C 3,9 C 2,8 C 90 % 987,9 hPa 0,0 l/m 0 min 0 min 0 W/m 6,4 km/h (2 Bft) 97,87 %
01.02.2019 18:02 4,2 C 3,9 C 2,8 C 90 % 987,9 hPa 0,0 l/m 0 min 0 min 0 W/m 6,4 km/h (2 Bft) 97,87 %
01.02.2019 18:04 4,2 C 3,9 C 2,8 C 90 % 987,9 hPa 0,0 l/m 0 min 0 min 0 W/m 6,4 km/h (2 Bft) 97,83 %
01.02.2019 18:08 4,2 C 3,9 C 2,8 C 90 % 988,0 hPa 0,0 l/m 0 min 0 min 0 W/m 9,7 km/h (2 Bft) 97,87 %
01.02.2019 18:10 4,2 C 3,9 C 2,8 C 90 % 987,9 hPa 0,0 l/m 0 min 0 min 0 W/m 6,4 km/h (2 Bft) 97,87 %
01.02.2019 18:12 4,2 C 3,9 C 2,8 C 90 % 987,9 hPa 0,0 l/m 0 min 0 min 0 W/m 6,4 km/h (2 Bft) 97,87 %
01.02.2019 18:14 4,2 C 3,9 C 2,8 C 90 % 988,0 hPa 0,0 l/m 0 min 0 min 0 W/m 9,7 km/h (2 Bft) 97,87 %
01.02.2019 18:16 4,2 C 3,9 C 2,8 C 90 % 988,0 hPa 0,0 l/m 0 min 0 min 0 W/m 3,2 km/h (1 Bft) 100,00 %
01.02.2019 18:18 4,2 C 3,9 C 2,8 C 90 % 988,0 hPa 0,0 l/m 0 min 0 min 0 W/m 6,4 km/h (2 Bft) 100,00 %
01.02.2019 18:20 4,2 C 3,3 C 2,8 C 90 % 988,1 hPa 0,0 l/m 0 min 0 min 0 W/m 3,2 km/h (1 Bft) 100,00 %
01.02.2019 18:22 4,2 C 3,3 C 2,8 C 90 % 988,1 hPa 0,0 l/m 0 min 0 min 0 W/m 3,2 km/h (1 Bft) 100,00 %
01.02.2019 18:24 4,2 C 3,3 C 2,2 C 90 % 988,0 hPa 0,0 l/m 0 min 0 min 0 W/m 3,2 km/h (1 Bft) 100,00 %
01.02.2019 18:26 4,2 C 3,3 C 2,2 C 90 % 988,0 hPa 0,0 l/m 0 min 0 min 0 W/m 3,2 km/h (1 Bft) 97,87 %
01.02.2019 18:28 4,2 C 3,3 C 2,2 C 90 % 988,1 hPa 0,0 l/m 0 min 0 min 0 W/m 0,0 km/h (0 Bft) 100,00 %
01.02.2019 18:30 4,2 C 2,8 C 2,2 C 90 % 988,1 hPa 0,0 l/m 0 min 0 min 0 W/m 3,2 km/h (1 Bft) 100,00 %
01.02.2019 18:32 4,1 C 2,8 C 2,2 C 90 % 988,1 hPa 0,0 l/m 0 min 0 min 0 W/m 6,4 km/h (2 Bft) 100,00 %
01.02.2019 18:34 4,1 C 2,8 C 2,2 C 90 % 988,0 hPa 0,0 l/m 0 min 0 min 0 W/m 3,2 km/h (1 Bft) 97,87 %
01.02.2019 18:36 4,1 C 2,8 C 1,7 C 90 % 987,9 hPa 0,0 l/m 0 min 0 min 0 W/m 3,2 km/h (1 Bft) 96,55 %
01.02.2019 18:38 4,1 C 2,8 C 1,7 C 90 % 987,9 hPa 0,0 l/m 0 min 0 min 0 W/m 3,2 km/h (1 Bft) 97,87 %
01.02.2019 18:40 4,1 C 2,8 C 1,7 C 90 % 987,9 hPa 0,0 l/m 0 min 0 min 0 W/m 3,2 km/h (1 Bft) 97,14 %
01.02.2019 18:42 4,0 C 2,8 C 1,7 C 90 % 987,9 hPa 0,0 l/m 0 min 0 min 0 W/m 3,2 km/h (1 Bft) 95,74 %
01.02.2019 18:44 4,0 C 2,8 C 1,7 C 90 % 987,9 hPa 0,0 l/m 0 min 0 min 0 W/m 3,2 km/h (1 Bft) 97,87 %
01.02.2019 18:46 3,9 C 2,8 C 1,7 C 90 % 987,9 hPa 0,0 l/m 0 min 0 min 0 W/m 3,2 km/h (1 Bft) 97,87 %
01.02.2019 18:48 3,9 C 2,8 C 1,7 C 90 % 987,8 hPa 0,0 l/m 0 min 0 min 0 W/m 3,2 km/h (1 Bft) 95,74 %
01.02.2019 18:50 3,9 C 2,8 C 1,7 C 90 % 987,8 hPa 0,0 l/m 0 min 0 min 0 W/m 3,2 km/h (1 Bft) 93,62 %
01.02.2019 18:52 3,9 C 2,8 C 1,7 C 90 % 987,8 hPa 0,0 l/m 0 min 0 min 0 W/m 0,0 km/h (0 Bft) 91,30 %
01.02.2019 18:54 3,9 C 2,8 C 1,7 C 90 % 987,9 hPa 0,0 l/m 0 min 0 min 0 W/m 3,2 km/h (1 Bft) 95,74 %
01.02.2019 18:56 3,8 C 2,8 C 1,7 C 90 % 987,9 hPa 0,0 l/m 0 min 0 min 0 W/m 6,4 km/h (2 Bft) 95,74 %
01.02.2019 18:58 3,8 C 2,8 C 1,7 C 90 % 987,8 hPa 0,0 l/m 0 min 0 min 0 W/m 6,4 km/h (2 Bft) 97,87 %
01.02.2019 19:00 3,8 C 2,8 C 1,7 C 90 % 987,7 hPa 0,0 l/m 0 min 0 min 0 W/m 3,2 km/h (1 Bft) 93,62 %
01.02.2019 19:02 3,8 C 2,8 C 1,7 C 90 % 987,7 hPa 0,0 l/m 0 min 0 min 0 W/m 3,2 km/h (1 Bft) 95,65 %
01.02.2019 19:04 3,7 C 2,8 C 1,7 C 90 % 987,8 hPa 0,0 l/m 0 min 0 min 0 W/m 3,2 km/h (1 Bft) 95,74 %
01.02.2019 19:06 3,7 C 2,8 C 1,7 C 90 % 987,8 hPa 0,0 l/m 0 min 0 min 0 W/m 3,2 km/h (1 Bft) 94,92 %
01.02.2019 19:08 3,7 C 2,8 C 1,7 C 90 % 987,9 hPa 0,0 l/m 0 min 0 min 0 W/m 3,2 km/h (1 Bft) 95,74 %
01.02.2019 19:10 3,7 C 2,8 C 1,7 C 90 % 988,0 hPa 0,0 l/m 0 min 0 min 0 W/m 3,2 km/h (1 Bft) 94,29 %
01.02.2019 19:12 3,7 C 2,8 C 1,7 C 90 % 988,0 hPa 0,0 l/m 0 min 0 min 0 W/m 3,2 km/h (1 Bft) 95,74 %
01.02.2019 19:14 3,6 C 2,8 C 1,7 C 90 % 988,0 hPa 0,0 l/m 0 min 0 min 0 W/m 3,2 km/h (1 Bft) 93,48 %
01.02.2019 19:16 3,6 C 2,8 C 1,7 C 91 % 988,1 hPa 0,0 l/m 0 min 0 min 0 W/m 3,2 km/h (1 Bft) 95,74 %
01.02.2019 19:18 3,6 C 2,8 C 1,7 C 91 % 988,1 hPa 0,0 l/m 0 min 0 min 0 W/m 3,2 km/h (1 Bft) 95,74 %
01.02.2019 19:20 3,6 C 2,8 C 1,7 C 91 % 988,2 hPa 0,0 l/m 0 min 0 min 0 W/m 3,2 km/h (1 Bft) 91,49 %
01.02.2019 19:22 3,6 C 2,8 C 1,7 C 91 % 988,2 hPa 0,0 l/m 0 min 0 min 0 W/m 3,2 km/h (1 Bft) 95,74 %
01.02.2019 19:24 3,6 C 2,8 C 1,1 C 91 % 988,2 hPa 0,0 l/m 0 min 0 min 0 W/m 3,2 km/h (1 Bft) 95,74 %
01.02.2019 19:26 3,5 C 2,8 C 1,1 C 91 % 988,3 hPa 0,0 l/m 0 min 0 min 0 W/m 3,2 km/h (1 Bft) 93,48 %
01.02.2019 19:28 3,5 C 2,8 C 1,1 C 91 % 988,3 hPa 0,0 l/m 0 min 0 min 0 W/m 3,2 km/h (1 Bft) 93,62 %
01.02.2019 19:30 3,4 C 2,8 C 1,1 C 91 % 988,4 hPa 0,0 l/m 0 min 0 min 0 W/m 3,2 km/h (1 Bft) 95,74 %
01.02.2019 19:32 3,4 C 2,8 C 1,1 C 91 % 988,4 hPa 0,0 l/m 0 min 0 min 0 W/m 3,2 km/h (1 Bft) 95,74 %
01.02.2019 19:34 3,4 C 2,8 C 1,1 C 91 % 988,4 hPa 0,0 l/m 0 min 0 min 0 W/m 3,2 km/h (1 Bft) 97,87 %
01.02.2019 19:36 3,4 C 2,8 C 1,1 C 91 % 988,2 hPa 0,0 l/m 0 min 0 min 0 W/m 3,2 km/h (1 Bft) 100,00 %
01.02.2019 19:38 3,4 C 2,2 C 1,1 C 91 % 988,3 hPa 0,0 l/m 0 min 0 min 0 W/m 3,2 km/h (1 Bft) 97,87 %
01.02.2019 19:40 3,4 C 2,2 C 0,6 C 91 % 988,3 hPa 0,0 l/m 0 min 0 min 0 W/m 3,2 km/h (1 Bft) 97,14 %
01.02.2019 19:42 3,3 C 1,7 C 0,6 C 91 % 988,3 hPa 0,0 l/m 0 min 0 min 0 W/m 3,2 km/h (1 Bft) 100,00 %
01.02.2019 19:44 3,3 C 1,7 C 0,6 C 91 % 988,4 hPa 0,0 l/m 0 min 0 min 0 W/m 6,4 km/h (2 Bft) 100,00 %
01.02.2019 19:46 3,3 C 1,7 C 0,6 C 91 % 988,5 hPa 0,0 l/m 0 min 0 min 0 W/m 3,2 km/h (1 Bft) 100,00 %
01.02.2019 19:48 3,2 C 1,7 C 0,6 C 91 % 988,5 hPa 0,0 l/m 0 min 0 min 0 W/m 3,2 km/h (1 Bft) 100,00 %
01.02.2019 19:50 3,2 C 1,7 C 0,6 C 91 % 988,6 hPa 0,0 l/m 0 min 0 min 0 W/m 3,2 km/h (1 Bft) 97,87 %
01.02.2019 19:52 3,2 C 1,7 C 0,6 C 91 % 988,6 hPa 0,0 l/m 0 min 0 min 0 W/m 3,2 km/h (1 Bft) 100,00 %
01.02.2019 19:54 3,1 C 1,7 C 0,6 C 91 % 988,7 hPa 0,0 l/m 0 min 0 min 0 W/m 3,2 km/h (1 Bft) 100,00 %
01.02.2019 19:56 3,1 C 1,7 C 0,6 C 91 % 988,7 hPa 0,0 l/m 0 min 0 min 0 W/m 3,2 km/h (1 Bft) 100,00 %
01.02.2019 19:58 3,1 C 1,7 C 0,6 C 91 % 988,7 hPa 0,0 l/m 0 min 0 min 0 W/m 6,4 km/h (2 Bft) 97,87 %
01.02.2019 20:00 3,0 C 1,7 C 0,6 C 91 % 988,7 hPa 0,0 l/m 0 min 0 min 0 W/m 3,2 km/h (1 Bft) 100,00 %
01.02.2019 20:02 3,0 C 1,7 C 0,6 C 91 % 988,8 hPa 0,0 l/m 0 min 0 min 0 W/m 3,2 km/h (1 Bft) 97,87 %
01.02.2019 20:04 2,9 C 1,1 C 0,0 C 91 % 988,8 hPa 0,0 l/m 0 min 0 min 0 W/m 3,2 km/h (1 Bft) 100,00 %
01.02.2019 20:06 2,9 C 1,1 C 0,0 C 91 % 988,8 hPa 0,0 l/m 0 min 0 min 0 W/m 3,2 km/h (1 Bft) 98,31 %
01.02.2019 20:08 2,9 C 1,1 C 0,0 C 91 % 988,9 hPa 0,0 l/m 0 min 0 min 0 W/m 3,2 km/h (1 Bft) 97,83 %
01.02.2019 20:10 2,8 C 1,1 C 0,0 C 91 % 988,8 hPa 0,0 l/m 0 min 0 min 0 W/m 3,2 km/h (1 Bft) 100,00 %
01.02.2019 20:12 2,8 C 1,1 C 0,0 C 91 % 988,8 hPa 0,0 l/m 0 min 0 min 0 W/m 3,2 km/h (1 Bft) 97,83 %
01.02.2019 20:14 2,7 C 1,1 C 0,0 C 91 % 988,8 hPa 0,0 l/m 0 min 0 min 0 W/m 3,2 km/h (1 Bft) 97,87 %
01.02.2019 20:16 2,7 C 1,1 C 0,0 C 91 % 988,8 hPa 0,0 l/m 0 min 0 min 0 W/m 6,4 km/h (2 Bft) 97,87 %
01.02.2019 20:18 2,7 C 1,1 C 0,0 C 91 % 988,8 hPa 0,0 l/m 0 min 0 min 0 W/m 3,2 km/h (1 Bft) 97,87 %
01.02.2019 20:20 2,7 C 1,1 C 0,0 C 91 % 988,7 hPa 0,0 l/m 0 min 0 min 0 W/m 3,2 km/h (1 Bft) 97,87 %
01.02.2019 20:22 2,6 C 0,6 C 0,0 C 91 % 988,8 hPa 0,0 l/m 0 min 0 min 0 W/m 3,2 km/h (1 Bft) 97,87 %
01.02.2019 20:24 2,6 C 0,6 C -0,6 C 91 % 988,8 hPa 0,0 l/m 0 min 0 min 0 W/m 3,2 km/h (1 Bft) 95,65 %
01.02.2019 20:26 2,5 C 0,6 C -0,6 C 91 % 988,7 hPa 0,0 l/m 0 min 0 min 0 W/m 6,4 km/h (2 Bft) 97,87 %
01.02.2019 20:28 2,4 C 0,6 C -0,6 C 91 % 988,7 hPa 0,0 l/m 0 min 0 min 0 W/m 6,4 km/h (2 Bft) 97,87 %
01.02.2019 20:30 2,4 C 0,6 C -0,6 C 91 % 988,7 hPa 0,0 l/m 0 min 0 min 0 W/m 3,2 km/h (1 Bft) 95,74 %
01.02.2019 20:32 2,4 C 0,6 C -0,6 C 91 % 988,7 hPa 0,0 l/m 0 min 0 min 0 W/m 3,2 km/h (1 Bft) 95,74 %
01.02.2019 20:34 2,3 C 0,6 C -0,6 C 91 % 988,7 hPa 0,0 l/m 0 min 0 min 0 W/m 3,2 km/h (1 Bft) 97,87 %
01.02.2019 20:36 2,3 C 0,6 C -0,6 C 91 % 988,7 hPa 0,0 l/m 0 min 0 min 0 W/m 3,2 km/h (1 Bft) 98,28 %
01.02.2019 20:38 2,3 C 0,6 C -0,6 C 91 % 988,7 hPa 0,0 l/m 0 min 0 min 0 W/m 0,0 km/h (0 Bft) 97,87 %
01.02.2019 20:40 2,2 C 0,0 C -0,6 C 91 % 988,6 hPa 0,0 l/m 0 min 0 min 0 W/m 0,0 km/h (0 Bft) 97,14 %
01.02.2019 20:42 2,2 C 0,0 C -0,6 C 91 % 988,6 hPa 0,0 l/m 0 min 0 min 0 W/m 0,0 km/h (0 Bft) 97,87 %
01.02.2019 20:44 2,2 C 0,0 C -0,6 C 91 % 988,6 hPa 0,0 l/m 0 min 0 min 0 W/m 0,0 km/h (0 Bft) 97,87 %
01.02.2019 20:46 2,1 C 0,0 C -0,6 C 91 % 988,6 hPa 0,0 l/m 0 min 0 min 0 W/m 0,0 km/h (0 Bft) 97,87 %
01.02.2019 20:48 2,1 C 0,0 C -1,1 C 91 % 988,6 hPa 0,0 l/m 0 min 0 min 0 W/m 3,2 km/h (1 Bft) 97,83 %
01.02.2019 20:50 2,0 C 0,0 C -1,1 C 91 % 988,7 hPa 0,0 l/m 0 min 0 min 0 W/m 3,2 km/h (1 Bft) 97,87 %
01.02.2019 20:52 2,0 C 0,0 C -1,1 C 91 % 988,6 hPa 0,0 l/m 0 min 0 min 0 W/m 3,2 km/h (1 Bft) 100,00 %
01.02.2019 20:54 1,9 C 0,0 C -1,1 C 91 % 988,7 hPa 0,0 l/m 0 min 0 min 0 W/m 3,2 km/h (1 Bft) 100,00 %
01.02.2019 20:56 1,9 C 0,0 C -1,1 C 91 % 988,7 hPa 0,0 l/m 0 min 0 min 0 W/m 3,2 km/h (1 Bft) 100,00 %
01.02.2019 20:58 1,8 C 0,0 C -1,1 C 91 % 988,6 hPa 0,0 l/m 0 min 0 min 0 W/m 0,0 km/h (0 Bft) 100,00 %
01.02.2019 21:00 1,8 C 0,0 C -1,1 C 91 % 988,6 hPa 0,0 l/m 0 min 0 min 0 W/m 0,0 km/h (0 Bft) 100,00 %
01.02.2019 21:02 1,8 C 0,0 C -1,1 C 91 % 988,6 hPa 0,0 l/m 0 min 0 min 0 W/m 0,0 km/h (0 Bft) 100,00 %
01.02.2019 21:04 1,7 C 0,0 C -1,1 C 91 % 988,6 hPa 0,0 l/m 0 min 0 min 0 W/m 0,0 km/h (0 Bft) 100,00 %
01.02.2019 21:06 1,7 C 0,0 C -1,1 C 91 % 988,7 hPa 0,0 l/m 0 min 0 min 0 W/m 0,0 km/h (0 Bft) 98,28 %
01.02.2019 21:08 1,7 C -0,6 C -1,1 C 91 % 988,7 hPa 0,0 l/m 0 min 0 min 0 W/m 0,0 km/h (0 Bft) 100,00 %
01.02.2019 21:10 1,6 C -0,6 C -1,7 C 91 % 988,7 hPa 0,0 l/m 0 min 0 min 0 W/m 0,0 km/h (0 Bft) 100,00 %
01.02.2019 21:12 1,6 C -0,6 C -1,7 C 91 % 988,7 hPa 0,0 l/m 0 min 0 min 0 W/m 0,0 km/h (0 Bft) 100,00 %
01.02.2019 21:14 1,5 C 0,0 C -1,7 C 91 % 988,8 hPa 0,0 l/m 0 min 0 min 0 W/m 0,0 km/h (0 Bft) 100,00 %
01.02.2019 21:16 1,5 C 0,6 C -1,7 C 91 % 988,8 hPa 0,0 l/m 0 min 0 min 0 W/m 3,2 km/h (1 Bft) 100,00 %
01.02.2019 21:18 1,4 C 0,6 C -1,7 C 91 % 988,8 hPa 0,0 l/m 0 min 0 min 0 W/m 0,0 km/h (0 Bft) 100,00 %
01.02.2019 21:20 1,4 C 0,6 C -1,7 C 91 % 988,8 hPa 0,0 l/m 0 min 0 min 0 W/m 3,2 km/h (1 Bft) 100,00 %
01.02.2019 21:22 1,4 C 0,6 C -1,7 C 91 % 988,8 hPa 0,0 l/m 0 min 0 min 0 W/m 3,2 km/h (1 Bft) 100,00 %
01.02.2019 21:24 1,4 C 0,6 C -1,7 C 91 % 988,9 hPa 0,0 l/m 0 min 0 min 0 W/m 0,0 km/h (0 Bft) 100,00 %
01.02.2019 21:26 1,3 C 0,0 C -1,7 C 91 % 988,9 hPa 0,0 l/m 0 min 0 min 0 W/m 0,0 km/h (0 Bft) 97,87 %
01.02.2019 21:28 1,3 C 0,0 C -1,7 C 91 % 988,9 hPa 0,0 l/m 0 min 0 min 0 W/m 0,0 km/h (0 Bft) 97,87 %
01.02.2019 21:30 1,3 C 0,0 C -1,7 C 92 % 988,9 hPa 0,0 l/m 0 min 0 min 0 W/m 0,0 km/h (0 Bft) 100,00 %
01.02.2019 21:32 1,3 C -0,6 C -1,7 C 92 % 988,9 hPa 0,0 l/m 0 min 0 min 0 W/m 0,0 km/h (0 Bft) 100,00 %
01.02.2019 21:34 1,2 C -0,6 C -1,7 C 92 % 988,9 hPa 0,0 l/m 0 min 0 min 0 W/m 0,0 km/h (0 Bft) 100,00 %
01.02.2019 21:36 1,2 C -0,6 C -1,7 C 91 % 988,9 hPa 0,0 l/m 0 min 0 min 0 W/m 0,0 km/h (0 Bft) 100,00 %
01.02.2019 21:38 1,2 C 0,0 C -1,7 C 91 % 989,0 hPa 0,0 l/m 0 min 0 min 0 W/m 3,2 km/h (1 Bft) 100,00 %
01.02.2019 21:40 1,2 C 0,0 C -1,7 C 91 % 989,0 hPa 0,0 l/m 0 min 0 min 0 W/m 3,2 km/h (1 Bft) 100,00 %
01.02.2019 21:42 1,1 C -0,6 C -1,7 C 91 % 989,0 hPa 0,0 l/m 0 min 0 min 0 W/m 0,0 km/h (0 Bft) 97,87 %
01.02.2019 21:44 1,1 C -0,6 C -1,7 C 91 % 989,0 hPa 0,0 l/m 0 min 0 min 0 W/m 0,0 km/h (0 Bft) 95,74 %
01.02.2019 21:46 1,1 C -0,6 C -1,7 C 92 % 989,0 hPa 0,0 l/m 0 min 0 min 0 W/m 3,2 km/h (1 Bft) 97,83 %
01.02.2019 21:48 1,0 C -0,6 C -1,7 C 92 % 989,0 hPa 0,0 l/m 0 min 0 min 0 W/m 3,2 km/h (1 Bft) 97,87 %
01.02.2019 21:50 1,0 C -0,6 C -1,7 C 92 % 988,9 hPa 0,0 l/m 0 min 0 min 0 W/m 3,2 km/h (1 Bft) 95,74 %
01.02.2019 21:52 1,0 C -0,6 C -1,7 C 92 % 989,0 hPa 0,0 l/m 0 min 0 min 0 W/m 3,2 km/h (1 Bft) 97,87 %
01.02.2019 21:54 0,9 C -0,6 C -1,7 C 92 % 989,0 hPa 0,0 l/m 0 min 0 min 0 W/m 3,2 km/h (1 Bft) 97,87 %
01.02.2019 21:56 0,9 C -1,1 C -1,7 C 92 % 989,0 hPa 0,0 l/m 0 min 0 min 0 W/m 3,2 km/h (1 Bft) 97,83 %
01.02.2019 21:58 0,9 C -1,1 C -1,7 C 92 % 989,0 hPa 0,0 l/m 0 min 0 min 0 W/m 0,0 km/h (0 Bft) 95,74 %
01.02.2019 22:00 0,8 C -1,1 C -1,7 C 92 % 989,0 hPa 0,0 l/m 0 min 0 min 0 W/m 0,0 km/h (0 Bft) 100,00 %
01.02.2019 22:02 0,8 C -1,1 C -1,7 C 92 % 989,0 hPa 0,0 l/m 0 min 0 min 0 W/m 3,2 km/h (1 Bft) 93,62 %
01.02.2019 22:04 0,8 C -1,1 C -1,7 C 92 % 988,9 hPa 0,0 l/m 0 min 0 min 0 W/m 3,2 km/h (1 Bft) 97,87 %
01.02.2019 22:06 0,7 C -1,1 C -1,7 C 92 % 988,9 hPa 0,0 l/m 0 min 0 min 0 W/m 3,2 km/h (1 Bft) 96,55 %
01.02.2019 22:08 0,7 C -0,6 C -1,7 C 92 % 988,9 hPa 0,0 l/m 0 min 0 min 0 W/m 3,2 km/h (1 Bft) 95,74 %
01.02.2019 22:10 0,7 C -0,6 C -1,7 C 92 % 988,9 hPa 0,0 l/m 0 min 0 min 0 W/m 0,0 km/h (0 Bft) 97,14 %
01.02.2019 22:12 0,7 C -1,1 C -1,7 C 92 % 988,9 hPa 0,0 l/m 0 min 0 min 0 W/m 0,0 km/h (0 Bft) 97,87 %
01.02.2019 22:14 0,6 C -1,1 C -1,7 C 92 % 988,9 hPa 0,0 l/m 0 min 0 min 0 W/m 0,0 km/h (0 Bft) 93,62 %
01.02.2019 22:16 0,6 C -1,1 C -1,7 C 92 % 988,9 hPa 0,0 l/m 0 min 0 min 0 W/m 0,0 km/h (0 Bft) 93,62 %
01.02.2019 22:18 0,5 C -1,1 C -2,2 C 92 % 988,9 hPa 0,0 l/m 0 min 0 min 0 W/m 0,0 km/h (0 Bft) 93,62 %
01.02.2019 22:20 0,5 C -1,1 C -2,2 C 92 % 988,9 hPa 0,0 l/m 0 min 0 min 0 W/m 0,0 km/h (0 Bft) 93,48 %
01.02.2019 22:22 0,5 C -1,1 C -2,2 C 92 % 988,9 hPa 0,0 l/m 0 min 0 min 0 W/m 3,2 km/h (1 Bft) 95,74 %
01.02.2019 22:24 0,5 C -1,1 C -2,2 C 92 % 988,9 hPa 0,0 l/m 0 min 0 min 0 W/m 3,2 km/h (1 Bft) 93,62 %
01.02.2019 22:26 0,5 C -1,1 C -2,2 C 92 % 989,0 hPa 0,0 l/m 0 min 0 min 0 W/m 0,0 km/h (0 Bft) 95,74 %
01.02.2019 22:28 0,5 C -1,1 C -2,2 C 92 % 989,1 hPa 0,0 l/m 0 min 0 min 0 W/m 0,0 km/h (0 Bft) 95,74 %
01.02.2019 22:30 0,4 C -1,1 C -2,2 C 92 % 989,0 hPa 0,0 l/m 0 min 0 min 0 W/m 3,2 km/h (1 Bft) 95,74 %
01.02.2019 22:32 0,4 C -1,1 C -2,2 C 92 % 989,0 hPa 0,0 l/m 0 min 0 min 0 W/m 3,2 km/h (1 Bft) 95,65 %
01.02.2019 22:34 0,4 C -1,1 C -2,2 C 92 % 989,1 hPa 0,0 l/m 0 min 0 min 0 W/m 0,0 km/h (0 Bft) 93,62 %
01.02.2019 22:36 0,3 C -1,1 C -2,2 C 92 % 989,1 hPa 0,0 l/m 0 min 0 min 0 W/m 0,0 km/h (0 Bft) 94,92 %
01.02.2019 22:38 0,3 C -1,1 C -2,2 C 92 % 989,1 hPa 0,0 l/m 0 min 0 min 0 W/m 0,0 km/h (0 Bft) 94,29 %
01.02.2019 22:40 0,3 C -1,1 C -2,2 C 92 % 989,1 hPa 0,0 l/m 0 min 0 min 0 W/m 0,0 km/h (0 Bft) 95,74 %
01.02.2019 22:42 0,3 C -1,1 C -2,2 C 92 % 989,0 hPa 0,0 l/m 0 min 0 min 0 W/m 0,0 km/h (0 Bft) 95,74 %
01.02.2019 22:44 0,3 C -1,1 C -2,2 C 92 % 989,0 hPa 0,0 l/m 0 min 0 min 0 W/m 3,2 km/h (1 Bft) 93,48 %
01.02.2019 22:46 0,2 C -1,1 C -2,2 C 92 % 989,1 hPa 0,0 l/m 0 min 0 min 0 W/m 3,2 km/h (1 Bft) 95,74 %
01.02.2019 22:48 0,2 C -0,6 C -1,7 C 92 % 989,2 hPa 0,0 l/m 0 min 0 min 0 W/m 3,2 km/h (1 Bft) 95,74 %
01.02.2019 22:50 0,2 C -1,1 C -1,7 C 92 % 989,2 hPa 0,0 l/m 0 min 0 min 0 W/m 0,0 km/h (0 Bft) 95,74 %
01.02.2019 22:52 0,2 C -1,1 C -1,7 C 92 % 989,2 hPa 0,0 l/m 0 min 0 min 0 W/m 0,0 km/h (0 Bft) 95,74 %
01.02.2019 22:54 0,2 C -1,1 C -1,7 C 92 % 989,1 hPa 0,0 l/m 0 min 0 min 0 W/m 0,0 km/h (0 Bft) 95,74 %
01.02.2019 22:56 0,2 C -1,1 C -1,7 C 92 % 989,0 hPa 0,0 l/m 0 min 0 min 0 W/m 3,2 km/h (1 Bft) 95,65 %
01.02.2019 22:58 0,2 C -1,1 C -1,7 C 92 % 989,1 hPa 0,0 l/m 0 min 0 min 0 W/m 0,0 km/h (0 Bft) 95,74 %
01.02.2019 23:00 0,2 C -1,1 C -1,7 C 92 % 989,1 hPa 0,0 l/m 0 min 0 min 0 W/m 3,2 km/h (1 Bft) 95,74 %
01.02.2019 23:02 0,2 C -0,6 C -1,7 C 93 % 989,2 hPa 0,0 l/m 0 min 0 min 0 W/m 0,0 km/h (0 Bft) 95,74 %
01.02.2019 23:04 0,2 C -0,6 C -1,7 C 93 % 989,1 hPa 0,0 l/m 0 min 0 min 0 W/m 0,0 km/h (0 Bft) 97,87 %
01.02.2019 23:06 0,2 C -0,6 C -1,7 C 92 % 989,2 hPa 0,0 l/m 0 min 0 min 0 W/m 6,4 km/h (2 Bft) 98,28 %
01.02.2019 23:08 0,1 C -0,6 C -1,7 C 92 % 989,2 hPa 0,0 l/m 0 min 0 min 0 W/m 3,2 km/h (1 Bft) 97,14 %
01.02.2019 23:10 0,1 C -0,6 C -1,7 C 93 % 989,2 hPa 0,0 l/m 0 min 0 min 0 W/m 3,2 km/h (1 Bft) 97,87 %
01.02.2019 23:12 0,2 C -0,6 C -1,7 C 93 % 989,3 hPa 0,0 l/m 0 min 0 min 0 W/m 6,4 km/h (2 Bft) 97,87 %
01.02.2019 23:14 0,1 C -0,6 C -1,7 C 93 % 989,3 hPa 0,0 l/m 0 min 0 min 0 W/m 3,2 km/h (1 Bft) 97,87 %
01.02.2019 23:16 0,2 C -0,6 C -1,7 C 93 % 989,2 hPa 0,0 l/m 0 min 0 min 0 W/m 3,2 km/h (1 Bft) 100,00 %
01.02.2019 23:18 0,2 C -0,6 C -1,7 C 93 % 989,2 hPa 0,0 l/m 0 min 0 min 0 W/m 3,2 km/h (1 Bft) 100,00 %
01.02.2019 23:20 0,2 C -0,6 C -1,7 C 93 % 989,2 hPa 0,0 l/m 0 min 0 min 0 W/m 0,0 km/h (0 Bft) 97,87 %
01.02.2019 23:22 0,2 C -0,6 C -1,7 C 93 % 989,3 hPa 0,0 l/m 0 min 0 min 0 W/m 3,2 km/h (1 Bft) 100,00 %
01.02.2019 23:24 0,2 C -0,6 C -1,7 C 93 % 989,4 hPa 0,0 l/m 0 min 0 min 0 W/m 3,2 km/h (1 Bft) 100,00 %
01.02.2019 23:26 0,2 C -0,6 C -1,7 C 93 % 989,4 hPa 0,0 l/m 0 min 0 min 0 W/m 0,0 km/h (0 Bft) 100,00 %
01.02.2019 23:28 0,2 C -0,6 C -1,7 C 93 % 989,4 hPa 0,0 l/m 0 min 0 min 0 W/m 0,0 km/h (0 Bft) 100,00 %
01.02.2019 23:30 0,2 C -1,1 C -1,7 C 93 % 989,5 hPa 0,0 l/m 0 min 0 min 0 W/m 0,0 km/h (0 Bft) 100,00 %
01.02.2019 23:32 0,2 C -1,1 C -2,2 C 93 % 989,5 hPa 0,0 l/m 0 min 0 min 0 W/m 0,0 km/h (0 Bft) 100,00 %
01.02.2019 23:34 0,2 C -1,1 C -2,2 C 93 % 989,5 hPa 0,0 l/m 0 min 0 min 0 W/m 0,0 km/h (0 Bft) 100,00 %
01.02.2019 23:36 0,2 C -0,6 C -2,2 C 93 % 989,5 hPa 0,0 l/m 0 min 0 min 0 W/m 0,0 km/h (0 Bft) 100,00 %
01.02.2019 23:38 0,2 C -0,6 C -2,2 C 93 % 989,5 hPa 0,0 l/m 0 min 0 min 0 W/m 0,0 km/h (0 Bft) 100,00 %
01.02.2019 23:40 0,2 C -0,6 C -2,2 C 94 % 989,5 hPa 0,0 l/m 0 min 0 min 0 W/m 0,0 km/h (0 Bft) 100,00 %
01.02.2019 23:42 0,2 C -0,6 C -2,2 C 94 % 989,6 hPa 0,0 l/m 0 min 0 min 0 W/m 0,0 km/h (0 Bft) 100,00 %
01.02.2019 23:44 0,2 C -0,6 C -1,7 C 94 % 989,5 hPa 0,0 l/m 0 min 0 min 0 W/m 0,0 km/h (0 Bft) 100,00 %
01.02.2019 23:46 0,2 C -0,6 C -1,7 C 94 % 989,6 hPa 0,0 l/m 0 min 0 min 0 W/m 0,0 km/h (0 Bft) 100,00 %
01.02.2019 23:48 0,2 C -0,6 C -1,7 C 94 % 989,5 hPa 0,0 l/m 0 min 0 min 0 W/m 0,0 km/h (0 Bft) 100,00 %
01.02.2019 23:50 0,2 C -0,6 C -1,7 C 94 % 989,5 hPa 0,0 l/m 0 min 0 min 0 W/m 0,0 km/h (0 Bft) 100,00 %
01.02.2019 23:52 0,2 C -0,6 C -1,7 C 94 % 989,6 hPa 0,0 l/m 0 min 0 min 0 W/m 0,0 km/h (0 Bft) 100,00 %
01.02.2019 23:54 0,2 C -0,6 C -1,7 C 94 % 989,6 hPa 0,0 l/m 0 min 0 min 0 W/m 0,0 km/h (0 Bft) 100,00 %
01.02.2019 23:56 0,2 C -0,6 C -1,7 C 94 % 989,6 hPa 0,0 l/m 0 min 0 min 0 W/m 0,0 km/h (0 Bft) 100,00 %
01.02.2019 23:58 0,1 C -0,6 C -1,7 C 94 % 989,6 hPa 0,0 l/m 0 min 0 min 0 W/m 0,0 km/h (0 Bft) 100,00 %
_ Min-Zeit 00:00 00:00 00:00 15:20 05:18 - - - - 18:28 06:20
Minimum _ -1,2 C -1,7 C -2,2 C 87 % 985,1 hPa - - - - 0,0 km/h (0 Bft) 89,36 %
_ Max-Zeit 15:38 14:36 12:52 05:40 23:42 08:38 11:32 03:16 11:48 02:46 00:02
Maximum _ 5,3 C 6,1 C 4,4 C 97 % 989,6 hPa 0,2 l/m 2 min 2 min 277 W/m 32,2 km/h
O (5 Bft)
100,00 %
Durchschnitt _ 1,9 C 1,3 C 0,6 C 93 % 987,4 hPa #1,6 l/m #1:44 h #1:22 h 100 W/m 9,8 km/h (2 Bft) 97,52 %
© 2019 W. Hausmann